M I D A S
Marine Information and Data Acquisition System
Tripno 2124 of the Zeeleeuw from 2011-06-20 06:51:14 to 2011-06-20 15:03:38
Back to CruiseResearch ActivitiesStationsMapUnderway DataData graphs

EquipmentUnitsComment
TimeDGPSUTC
LatitudeDGPSDM.mWGS84
LongitudeDGPSDM.mWGS84
TemperatureSBE03/SBE38deg celciusITS90
ConductivitySBE21S/mITS90
SalinitySBE21 Practical Salinity Units
ChlorophylAChelsea fluorimeterg/lCalibrated in Aceton
Missing or incorrect values are displayed as -999
Sea surface data collected by the RV Zeeleeuw from 2011-06-20 06:51:25 to 2011-06-20 15:51:21
                                                                                    Next 1000 lines
Time Latitude Longitude Temperature Conductivity Salinity ChlorophylA
2011-06-20 06:51:35 51°13.636 2°56.012 17.6844 4.534986 34.825326 -3.020363
2011-06-20 06:51:40 51°13.638 2°56.008 17.6985 4.534882 34.82512 -3.020363
2011-06-20 06:51:44 51°13.638 2°56.004 17.6974 4.534882 34.825807 -3.020363
2011-06-20 06:51:49 51°13.64 2°55.998 17.6934 4.534882 34.825807 -3.020363
2011-06-20 06:51:56 51°13.642 2°55.989 17.6974 4.534778 34.824914 -3.020363
2011-06-20 06:52:01 51°13.644 2°55.982 17.6933 4.534778 34.824914 -3.020363
2011-06-20 06:52:07 51°13.647 2°55.973 17.7011 4.534778 34.825601 -3.020363
2011-06-20 06:52:12 51°13.649 2°55.965 17.6918 4.534675 34.824708 -3.020363
2011-06-20 06:52:18 51°13.652 2°55.954 17.6983 4.534675 34.824708 -3.020363
2011-06-20 06:52:23 51°13.655 2°55.944 17.6925 4.534675 34.824708 -3.020363
2011-06-20 06:52:28 51°13.658 2°55.934 17.7053 4.534571 34.824502 -3.020363
2011-06-20 06:52:32 51°13.66 2°55.926 17.7065 4.534571 34.824502 -3.020363
2011-06-20 06:52:38 51°13.664 2°55.913 17.7096 4.534571 34.825189 -3.020363
2011-06-20 06:52:43 51°13.667 2°55.902 17.7106 4.534467 34.824296 -3.020363
2011-06-20 06:52:48 51°13.669 2°55.892 17.7129 4.534467 34.824983 -3.020363
2011-06-20 06:52:53 51°13.672 2°55.881 17.7084 4.534364 34.82409 -3.020363
2011-06-20 06:52:58 51°13.674 2°55.872 17.7054 4.534364 34.824777 -3.020363
2011-06-20 06:53:03 51°13.677 2°55.863 17.7033 4.534364 34.824777 -3.020363
2011-06-20 06:53:08 51°13.679 2°55.854 17.7082 4.534364 34.825464 -3.020363
2011-06-20 06:53:13 51°13.681 2°55.845 17.7048 4.53426 34.825258 -3.020363
2011-06-20 06:53:18 51°13.683 2°55.836 17.7032 4.53426 34.825258 -3.020363
2011-06-20 06:53:23 51°13.685 2°55.828 17.7043 4.534156 34.825052 -3.020363
2011-06-20 06:53:28 51°13.686 2°55.821 17.7056 4.534156 34.825739 -3.020363
2011-06-20 06:53:32 51°13.687 2°55.814 17.7075 4.534156 34.825739 -3.020363
2011-06-20 06:53:37 51°13.689 2°55.806 17.7065 4.534052 34.824846 -3.020363
2011-06-20 06:53:42 51°13.69 2°55.799 17.7054 4.534052 34.825533 -3.020363
2011-06-20 06:53:48 51°13.692 2°55.79 17.7047 4.533949 34.825327 -3.020363
2011-06-20 06:53:52 51°13.692 2°55.784 17.7029 4.533949 34.825327 -3.020363
2011-06-20 06:53:58 51°13.694 2°55.775 17.6986 4.533949 34.826014 -3.020363
2011-06-20 06:54:03 51°13.695 2°55.768 17.7075 4.533949 34.826014 -3.020363
2011-06-20 06:54:08 51°13.695 2°55.761 17.7068 4.533845 34.825121 -3.020363
2011-06-20 06:54:12 51°13.696 2°55.755 17.706 4.533845 34.825808 -3.020363
2011-06-20 06:54:18 51°13.696 2°55.748 17.7064 4.533741 34.824915 -3.020363
2011-06-20 06:54:23 51°13.696 2°55.743 17.7013 4.533741 34.825602 -3.020363
2011-06-20 06:54:28 51°13.696 2°55.739 17.7133 4.533741 34.825602 -3.020363
2011-06-20 06:54:32 51°13.696 2°55.737 17.7135 4.533741 34.825602 -3.020363
2011-06-20 06:54:37 51°13.696 2°55.737 17.7127 4.533637 34.825396 -3.020363
2011-06-20 06:54:42 51°13.697 2°55.736 17.7125 4.533637 34.826083 -3.020363
2011-06-20 06:54:47 51°13.697 2°55.736 17.7128 4.533534 34.82519 -3.020363
2011-06-20 06:54:52 51°13.698 2°55.736 17.7148 4.533534 34.825877 -3.020363
2011-06-20 06:54:56 51°13.699 2°55.737 17.7138 4.53343 34.825671 -3.020363
2011-06-20 06:55:01 51°13.7 2°55.737 17.7155 4.53343 34.825671 -3.020363
2011-06-20 06:55:06 51°13.701 2°55.738 17.7111 4.53343 34.826358 -3.020363
2011-06-20 06:55:11 51°13.703 2°55.739 17.7076 4.53343 34.827045 -3.020363
2011-06-20 06:55:16 51°13.704 2°55.74 17.7093 4.533326 34.826152 -3.020363
2011-06-20 06:55:20 51°13.706 2°55.74 17.7128 4.533326 34.826839 -3.020363
2011-06-20 06:55:25 51°13.708 2°55.741 17.7123 4.533326 34.827526 -3.020363
2011-06-20 06:55:30 51°13.71 2°55.741 17.6846 4.533326 34.827526 -3.020363
2011-06-20 06:55:35 51°13.711 2°55.741 17.6492 4.533223 34.82732 -3.020363
2011-06-20 06:55:40 51°13.712 2°55.741 17.7085 4.533223 34.826633 -3.020363
2011-06-20 06:55:44 51°13.712 2°55.741 17.6575 4.533119 34.826427 -3.020363
2011-06-20 06:55:49 51°13.711 2°55.741 17.7014 4.533119 34.826427 -3.020363
2011-06-20 06:55:55 51°13.709 2°55.74 17.708 4.533015 34.825534 -3.020363
2011-06-20 06:55:59 51°13.708 2°55.74 17.7014 4.533015 34.825534 -3.020363
2011-06-20 06:56:04 51°13.706 2°55.74 17.7059 4.533015 34.824847 -3.020363
2011-06-20 06:56:10 51°13.704 2°55.74 17.7059 4.533015 34.824847 -3.020363
2011-06-20 06:56:16 51°13.703 2°55.74 17.7121 4.532911 34.823954 -3.020363
2011-06-20 06:56:21 51°13.703 2°55.74 17.7133 4.532911 34.824641 -3.020363
2011-06-20 06:56:27 51°13.703 2°55.739 17.7149 4.532808 34.823748 -3.020363
2011-06-20 06:56:32 51°13.703 2°55.739 17.7185 4.532808 34.823748 -3.020363
2011-06-20 06:56:38 51°13.705 2°55.738 17.7221 4.532808 34.823748 -3.020363
2011-06-20 06:56:43 51°13.707 2°55.736 17.7239 4.532704 34.823542 -3.020363
2011-06-20 06:56:48 51°13.711 2°55.734 17.7285 4.532704 34.824229 -3.020363
2011-06-20 06:56:52 51°13.714 2°55.731 17.7259 4.532704 34.824229 -3.020363
2011-06-20 06:56:58 51°13.72 2°55.725 17.7261 4.5326 34.824023 -3.020363
2011-06-20 06:57:03 51°13.726 2°55.719 17.7229 4.5326 34.824023 -3.020363
2011-06-20 06:57:08 51°13.733 2°55.713 17.7119 4.5326 34.824023 -3.020363
2011-06-20 06:57:12 51°13.74 2°55.707 17.697 4.5326 34.82471 -3.020363
2011-06-20 06:57:17 51°13.748 2°55.7 17.6983 4.532496 34.824504 -3.020363
2011-06-20 06:57:22 51°13.758 2°55.692 17.6885 4.532496 34.824504 -3.020363
2011-06-20 06:57:27 51°13.767 2°55.684 17.6798 4.532496 34.825191 -3.020363
2011-06-20 06:57:32 51°13.778 2°55.676 17.686 4.532496 34.825191 -3.020363
2011-06-20 06:57:37 51°13.789 2°55.667 17.6778 4.532393 34.824298 -3.020363
2011-06-20 06:57:42 51°13.8 2°55.658 17.6915 4.532393 34.824985 -3.020363
2011-06-20 06:57:48 51°13.814 2°55.647 17.6754 4.532289 34.824779 -3.020363
2011-06-20 06:57:52 51°13.824 2°55.639 17.6704 4.532289 34.825466 -3.020363
2011-06-20 06:57:58 51°13.839 2°55.627 17.6761 4.532289 34.825466 -3.020363
2011-06-20 06:58:03 51°13.851 2°55.618 17.6782 4.532289 34.825466 -3.020363
2011-06-20 06:58:08 51°13.864 2°55.607 17.6649 4.532185 34.82526 -3.020363
2011-06-20 06:58:12 51°13.875 2°55.6 17.6788 4.532185 34.82526 -3.020363
2011-06-20 06:58:17 51°13.888 2°55.59 17.673 4.532081 34.825055 -3.020363
2011-06-20 06:58:22 51°13.902 2°55.58 17.6789 4.532081 34.825742 -3.020363
2011-06-20 06:58:28 51°13.917 2°55.568 17.6633 4.531978 34.824849 -3.020363
2011-06-20 06:58:32 51°13.929 2°55.56 17.6854 4.531978 34.824849 -3.020363
2011-06-20 06:58:38 51°13.945 2°55.547 17.6754 4.531978 34.825536 -3.020363
2011-06-20 06:58:43 51°13.959 2°55.536 17.6667 4.531978 34.825536 -3.020363
2011-06-20 06:58:48 51°13.973 2°55.526 17.6703 4.531874 34.82533 -3.020363
2011-06-20 06:58:52 51°13.984 2°55.518 17.6928 4.531874 34.826017 -3.020363
2011-06-20 06:58:58 51°14.001 2°55.505 17.6679 4.531874 34.826705 -3.020363
2011-06-20 06:59:03 51°14.015 2°55.495 17.6842 4.531874 34.826705 -3.020363
2011-06-20 06:59:08 51°14.029 2°55.485 17.6657 4.53177 34.826499 -3.020363
2011-06-20 06:59:12 51°14.04 2°55.476 17.6864 4.53177 34.826499 -3.020363
2011-06-20 06:59:18 51°14.057 2°55.464 17.6893 4.531667 34.826293 -3.020363
2011-06-20 06:59:22 51°14.069 2°55.455 17.6767 4.531667 34.826293 -3.020363
2011-06-20 06:59:28 51°14.086 2°55.443 17.7011 4.531667 34.82698 -3.020363
2011-06-20 06:59:32 51°14.097 2°55.434 17.6897 4.531667 34.82698 -3.020363
2011-06-20 06:59:37 51°14.112 2°55.423 17.688 4.531563 34.826087 -3.020363
2011-06-20 06:59:42 51°14.126 2°55.412 17.6953 4.531563 34.826087 -3.020363
2011-06-20 06:59:47 51°14.14 2°55.401 17.6931 4.531459 34.825193 -3.020363
2011-06-20 06:59:52 51°14.154 2°55.39 17.7015 4.531459 34.825193 -3.020363
2011-06-20 06:59:56 51°14.166 2°55.381 17.6902 4.531355 34.824987 -3.020363
2011-06-20 07:00:01 51°14.18 2°55.369 17.7054 4.531355 34.824987 -3.020363
2011-06-20 07:00:06 51°14.194 2°55.357 17.6887 4.531355 34.824987 -3.020363
2011-06-20 07:00:11 51°14.208 2°55.345 17.6957 4.531252 34.824781 -3.020363
2011-06-20 07:00:16 51°14.221 2°55.333 17.6966 4.531252 34.825469 -3.020363
2011-06-20 07:00:21 51°14.235 2°55.321 17.7083 4.531252 34.826156 -3.020363
2011-06-20 07:00:26 51°14.249 2°55.308 17.6703 4.531252 34.826156 -3.020363
2011-06-20 07:00:31 51°14.263 2°55.296 17.6856 4.531252 34.826156 -3.020363
2011-06-20 07:00:36 51°14.277 2°55.283 17.7048 4.531148 34.825263 -3.020363
2011-06-20 07:00:40 51°14.288 2°55.273 17.6943 4.531148 34.82595 -3.020363
2011-06-20 07:00:45 51°14.302 2°55.26 17.7033 4.531148 34.82595 -3.020363
2011-06-20 07:00:50 51°14.316 2°55.247 17.6565 4.531044 34.825057 -3.020363
2011-06-20 07:00:56 51°14.333 2°55.23 17.6594 4.531044 34.825744 -3.020363
2011-06-20 07:01:00 51°14.344 2°55.219 17.6642 4.531044 34.825744 -3.020363
2011-06-20 07:01:05 51°14.358 2°55.206 17.6843 4.53094 34.824851 -3.020363
2011-06-20 07:01:09 51°14.37 2°55.195 17.6713 4.53094 34.824851 -3.020363
2011-06-20 07:01:14 51°14.384 2°55.182 17.6673 4.53094 34.825539 -3.020363
2011-06-20 07:01:20 51°14.401 2°55.166 17.6899 4.530837 34.824645 -3.020363
2011-06-20 07:01:24 51°14.412 2°55.155 17.6849 4.530733 34.824439 -3.020363
2011-06-20 07:01:28 51°14.424 2°55.144 17.6825 4.530733 34.824439 -3.020363
2011-06-20 07:01:34 51°14.44 2°55.127 17.6374 4.530837 34.825333 -3.020363
2011-06-20 07:01:40 51°14.457 2°55.111 17.6618 4.530733 34.825127 -3.020363
2011-06-20 07:01:44 51°14.468 2°55.1 17.6382 4.530629 34.824233 -3.020363
2011-06-20 07:01:49 51°14.482 2°55.086 17.6309 4.530629 34.824921 -3.020363
2011-06-20 07:01:55 51°14.499 2°55.069 17.6574 4.530629 34.824921 -3.020363
2011-06-20 07:01:59 51°14.51 2°55.057 17.6277 4.530629 34.824921 -3.020363
2011-06-20 07:02:04 51°14.524 2°55.042 17.625 4.530629 34.825608 -3.020363
2011-06-20 07:02:09 51°14.538 2°55.027 17.6641 4.530526 34.824715 -3.020363
2011-06-20 07:02:14 51°14.552 2°55.012 17.6324 4.530526 34.82609 -3.020363
2011-06-20 07:02:20 51°14.568 2°54.99 17.6604 4.530422 34.825196 -3.020363
2011-06-20 07:02:24 51°14.579 2°54.976 17.5936 4.530422 34.825196 -3.020363
2011-06-20 07:02:29 51°14.592 2°54.957 17.6223 4.530422 34.825196 -3.020363
2011-06-20 07:02:34 51°14.606 2°54.941 17.6248 4.530422 34.825196 -3.020363
2011-06-20 07:02:40 51°14.623 2°54.919 17.6275 4.530318 34.824303 -3.020363
2011-06-20 07:02:44 51°14.634 2°54.906 17.6168 4.530318 34.82499 -3.020363
2011-06-20 07:02:49 51°14.648 2°54.888 17.6293 4.530318 34.825678 -3.020363
2011-06-20 07:02:54 51°14.663 2°54.871 17.6366 4.530214 34.824784 -3.020363
2011-06-20 07:03:00 51°14.68 2°54.85 17.639 4.530214 34.824784 -3.020363
2011-06-20 07:03:04 51°14.692 2°54.837 17.6314 4.530214 34.824784 -3.020363
2011-06-20 07:03:08 51°14.704 2°54.823 17.6033 4.530111 34.824579 -3.020363
2011-06-20 07:03:14 51°14.721 2°54.803 17.6215 4.530111 34.824579 -3.020363
2011-06-20 07:03:20 51°14.739 2°54.783 17.6352 4.530111 34.825266 -3.020363
2011-06-20 07:03:24 51°14.751 2°54.769 17.6355 4.530007 34.824373 -3.020363
2011-06-20 07:03:29 51°14.766 2°54.752 17.6175 4.530007 34.824373 -3.020363
2011-06-20 07:03:34 51°14.78 2°54.734 17.6156 4.530007 34.82506 -3.020363
2011-06-20 07:03:40 51°14.798 2°54.714 17.6029 4.530007 34.824373 -3.020363
2011-06-20 07:03:44 51°14.811 2°54.701 17.6119 4.529903 34.824167 -3.020363
2011-06-20 07:03:49 51°14.826 2°54.684 17.595 4.529903 34.824854 -3.020363
2011-06-20 07:03:54 51°14.841 2°54.668 17.6169 4.529903 34.825542 -3.020363
2011-06-20 07:04:00 51°14.859 2°54.648 17.6161 4.529903 34.825542 -3.020363
2011-06-20 07:04:04 51°14.871 2°54.635 17.605 4.529799 34.824648 -3.020363
2011-06-20 07:04:09 51°14.886 2°54.618 17.5953 4.529799 34.824648 -3.020363
2011-06-20 07:04:14 51°14.901 2°54.601 17.6021 4.529799 34.825336 -3.020363
2011-06-20 07:04:19 51°14.917 2°54.585 17.6176 4.529696 34.824442 -3.020363
2011-06-20 07:04:24 51°14.932 2°54.568 17.5995 4.529592 34.823549 -3.020363
2011-06-20 07:04:29 51°14.947 2°54.552 17.5975 4.529592 34.823549 -3.020363
2011-06-20 07:04:34 51°14.962 2°54.536 17.6027 4.529696 34.82513 -3.020363
2011-06-20 07:04:40 51°14.98 2°54.516 17.5983 4.529488 34.82403 -3.020363
2011-06-20 07:04:44 51°14.992 2°54.502 17.6169 4.529592 34.825612 -3.020363
2011-06-20 07:04:49 51°15.007 2°54.485 17.5996 4.529488 34.824718 -3.020363
2011-06-20 07:04:54 51°15.021 2°54.467 17.604 4.529488 34.824718 -3.020363
2011-06-20 07:05:00 51°15.039 2°54.446 17.5872 4.529488 34.824718 -3.020363
2011-06-20 07:05:04 51°15.051 2°54.432 17.5784 4.529384 34.824512 -3.020363
2011-06-20 07:05:08 51°15.063 2°54.419 17.5746 4.529384 34.823825 -3.020363
2011-06-20 07:05:14 51°15.082 2°54.401 17.5969 4.529384 34.824512 -3.020363
2011-06-20 07:05:20 51°15.102 2°54.384 17.5308 4.529384 34.824512 -3.020363
2011-06-20 07:05:24 51°15.115 2°54.374 17.5428 4.529281 34.824306 -3.020363
2011-06-20 07:05:29 51°15.131 2°54.361 17.5406 4.529281 34.824306 -3.020363
2011-06-20 07:05:35 51°15.151 2°54.348 17.5577 4.529281 34.824994 -3.020363
2011-06-20 07:05:40 51°15.168 2°54.338 17.5581 4.529281 34.824994 -3.020363
2011-06-20 07:05:44 51°15.182 2°54.332 17.5618 4.529073 34.823207 -3.020363
2011-06-20 07:05:49 51°15.199 2°54.324 17.5531 4.529073 34.823894 -3.020363
2011-06-20 07:05:54 51°15.217 2°54.318 17.5681 4.529073 34.824582 -3.020363
2011-06-20 07:06:00 51°15.238 2°54.313 17.559 4.529073 34.824582 -3.020363
2011-06-20 07:06:04 51°15.252 2°54.31 17.5724 4.529073 34.824582 -3.020363
2011-06-20 07:06:09 51°15.27 2°54.308 17.5707 4.52897 34.823688 -3.020363
2011-06-20 07:06:15 51°15.292 2°54.305 17.5756 4.529073 34.824582 -3.020363
2011-06-20 07:06:19 51°15.306 2°54.304 17.5703 4.52897 34.824376 -3.020363
2011-06-20 07:06:24 51°15.324 2°54.302 17.5792 4.528866 34.823483 -3.020363
2011-06-20 07:06:29 51°15.342 2°54.301 17.568 4.528866 34.823483 -3.020363
2011-06-20 07:06:35 51°15.363 2°54.3 17.567 4.528866 34.82417 -3.020363
2011-06-20 07:06:39 51°15.378 2°54.3 17.5691 4.528762 34.823277 -3.020363
2011-06-20 07:06:44 51°15.396 2°54.301 17.5844 4.528866 34.824858 -3.020363
2011-06-20 07:06:49 51°15.414 2°54.301 17.5793 4.528762 34.823964 -3.020363
2011-06-20 07:06:55 51°15.435 2°54.302 17.5884 4.528658 34.823758 -3.020363
2011-06-20 07:06:59 51°15.45 2°54.303 17.5867 4.528658 34.823758 -3.020363
2011-06-20 07:07:04 51°15.468 2°54.304 17.5796 4.528658 34.824446 -3.020363
2011-06-20 07:07:09 51°15.485 2°54.305 17.5779 4.528658 34.825134 -3.020363
2011-06-20 07:07:14 51°15.503 2°54.305 17.5952 4.528658 34.825134 -3.020363
2011-06-20 07:07:20 51°15.525 2°54.305 17.5926 4.528451 34.824035 -3.020363
2011-06-20 07:07:24 51°15.539 2°54.305 17.5912 4.528451 34.824722 -3.020363
2011-06-20 07:07:28 51°15.554 2°54.304 17.58 4.528451 34.824722 -3.020363
2011-06-20 07:07:34 51°15.575 2°54.302 17.5825 4.528451 34.824722 -3.020363
2011-06-20 07:07:40 51°15.597 2°54.301 17.583 4.528451 34.824722 -3.020363
2011-06-20 07:07:44 51°15.611 2°54.3 17.5879 4.528347 34.824517 -3.020363
2011-06-20 07:07:48 51°15.625 2°54.299 17.5916 4.528347 34.824517 -3.020363
2011-06-20 07:07:55 51°15.65 2°54.298 17.5764 4.528347 34.824517 -3.020363
2011-06-20 07:08:00 51°15.668 2°54.297 17.5894 4.528347 34.824517 -3.020363
2011-06-20 07:08:04 51°15.683 2°54.297 17.5837 4.528243 34.824311 -3.020363
2011-06-20 07:08:09 51°15.701 2°54.297 17.5914 4.528243 34.824311 -3.020363
2011-06-20 07:08:14 51°15.719 2°54.297 17.598 4.528243 34.824999 -3.020363
2011-06-20 07:08:20 51°15.74 2°54.297 17.6 4.52814 34.824793 -3.020363
2011-06-20 07:08:24 51°15.755 2°54.297 17.5957 4.52814 34.825481 -3.020363
2011-06-20 07:08:28 51°15.769 2°54.296 17.591 4.52814 34.825481 -3.020363
2011-06-20 07:08:34 51°15.79 2°54.294 17.5863 4.52814 34.825481 -3.020363
2011-06-20 07:08:40 51°15.812 2°54.293 17.6025 4.528036 34.825275 -3.020363
2011-06-20 07:08:44 51°15.826 2°54.291 17.5996 4.528036 34.825275 -3.020363
2011-06-20 07:08:49 51°15.844 2°54.289 17.5882 4.527932 34.825069 -3.020363
2011-06-20 07:08:55 51°15.865 2°54.285 17.5886 4.528036 34.825963 -3.020363
2011-06-20 07:08:59 51°15.879 2°54.283 17.5996 4.528036 34.825963 -3.020363
2011-06-20 07:09:04 51°15.897 2°54.279 17.5995 4.527829 34.824175 -3.020363
2011-06-20 07:09:09 51°15.914 2°54.277 17.5984 4.527932 34.825757 -3.020363
2011-06-20 07:09:15 51°15.934 2°54.273 17.5877 4.527829 34.824863 -3.020363
2011-06-20 07:09:19 51°15.948 2°54.271 17.5937 4.527829 34.824863 -3.020363
2011-06-20 07:09:24 51°15.964 2°54.269 17.5947 4.527725 34.824657 -3.020363
2011-06-20 07:09:29 51°15.98 2°54.267 17.5952 4.527725 34.824657 -3.020363
2011-06-20 07:09:35 51°15.997 2°54.267 17.6013 4.527725 34.825345 -3.020363
2011-06-20 07:09:39 51°16.009 2°54.267 17.6065 4.527725 34.826033 -3.020363
2011-06-20 07:09:44 51°16.022 2°54.268 17.5992 4.527621 34.825139 -3.020363
2011-06-20 07:09:49 51°16.035 2°54.269 17.6041 4.527621 34.825827 -3.020363
2011-06-20 07:09:55 51°16.049 2°54.271 17.6067 4.527517 34.824933 -3.020363
2011-06-20 07:09:59 51°16.058 2°54.273 17.6062 4.527517 34.824933 -3.020363
2011-06-20 07:10:04 51°16.069 2°54.275 17.6024 4.527414 34.824727 -3.020363
2011-06-20 07:10:09 51°16.08 2°54.278 17.6099 4.527414 34.824727 -3.020363
2011-06-20 07:10:14 51°16.089 2°54.281 17.6143 4.527517 34.82631 -3.020363
2011-06-20 07:10:20 51°16.101 2°54.284 17.6124 4.527414 34.825416 -3.020363
2011-06-20 07:10:24 51°16.108 2°54.287 17.611 4.527414 34.825416 -3.020363
2011-06-20 07:10:28 51°16.115 2°54.289 17.6058 4.527414 34.825416 -3.020363
2011-06-20 07:10:34 51°16.125 2°54.292 17.6122 4.52731 34.824521 -3.020363
2011-06-20 07:10:40 51°16.135 2°54.295 17.6148 4.52731 34.824521 -3.020363
2011-06-20 07:10:44 51°16.141 2°54.297 17.6164 4.527206 34.824316 -3.020363
2011-06-20 07:10:48 51°16.147 2°54.299 17.6223 4.527206 34.825004 -3.020363
2011-06-20 07:10:54 51°16.155 2°54.302 17.6195 4.527206 34.825004 -3.020363
2011-06-20 07:10:59 51°16.162 2°54.304 17.621 4.527206 34.825004 -3.020363
2011-06-20 07:11:04 51°16.169 2°54.306 17.6171 4.527206 34.82638 -3.020363
2011-06-20 07:11:08 51°16.174 2°54.307 17.62 4.527102 34.825486 -3.020363
2011-06-20 07:11:14 51°16.182 2°54.308 17.625 4.526999 34.82528 -3.020363
2011-06-20 07:11:20 51°16.189 2°54.309 17.6248 4.526895 34.824386 -3.020363
2011-06-20 07:11:24 51°16.193 2°54.31 17.6163 4.526895 34.825074 -3.020363
2011-06-20 07:11:28 51°16.198 2°54.31 17.6247 4.526895 34.825074 -3.020363
2011-06-20 07:11:34 51°16.204 2°54.311 17.6223 4.526895 34.825074 -3.020363
2011-06-20 07:11:40 51°16.211 2°54.311 17.6281 4.526895 34.825763 -3.020363
2011-06-20 07:11:44 51°16.215 2°54.312 17.6248 4.526895 34.825763 -3.020363
2011-06-20 07:11:48 51°16.219 2°54.311 17.6271 4.526791 34.825557 -3.020363
2011-06-20 07:11:54 51°16.224 2°54.311 17.624 4.526791 34.825557 -3.020363
2011-06-20 07:12:00 51°16.229 2°54.311 17.6268 4.526791 34.825557 -3.020363
2011-06-20 07:12:04 51°16.233 2°54.31 17.6302 4.526791 34.825557 -3.020363
2011-06-20 07:12:10 51°16.238 2°54.309 17.6324 4.526688 34.825351 -3.020363
2011-06-20 07:12:15 51°16.241 2°54.308 17.6285 4.526688 34.826039 -3.020363
2011-06-20 07:12:20 51°16.245 2°54.306 17.6301 4.526584 34.825145 -3.020363
2011-06-20 07:12:24 51°16.247 2°54.305 17.6333 4.526584 34.825145 -3.020363
2011-06-20 07:12:28 51°16.249 2°54.304 17.6343 4.526584 34.825145 -3.020363
2011-06-20 07:12:35 51°16.252 2°54.302 17.6292 4.526584 34.825833 -3.020363
2011-06-20 07:12:40 51°16.253 2°54.3 17.6321 4.52648 34.824939 -3.020363
2011-06-20 07:12:44 51°16.254 2°54.298 17.6337 4.526376 34.824733 -3.020363
2011-06-20 07:12:48 51°16.254 2°54.296 17.6353 4.526376 34.825421 -3.020363
2011-06-20 07:12:54 51°16.255 2°54.295 17.6301 4.526376 34.825421 -3.020363
2011-06-20 07:13:00 51°16.255 2°54.293 17.6382 4.526376 34.825421 -3.020363
2011-06-20 07:13:04 51°16.255 2°54.293 17.6363 4.526376 34.825421 -3.020363
2011-06-20 07:13:08 51°16.255 2°54.292 17.6395 4.526273 34.825216 -3.020363
2011-06-20 07:13:14 51°16.255 2°54.291 17.6401 4.526273 34.825216 -3.020363
2011-06-20 07:13:19 51°16.254 2°54.29 17.6431 4.526273 34.825904 -3.020363
2011-06-20 07:13:24 51°16.254 2°54.29 17.6451 4.526169 34.82501 -3.020363
2011-06-20 07:13:28 51°16.254 2°54.289 17.6457 4.526169 34.82501 -3.020363
2011-06-20 07:13:34 51°16.253 2°54.288 17.6458 4.526065 34.824115 -3.020363
2011-06-20 07:13:40 51°16.253 2°54.287 17.6481 4.526169 34.825698 -3.020363
2011-06-20 07:13:44 51°16.253 2°54.287 17.6482 4.526273 34.826592 -3.020363
2011-06-20 07:13:49 51°16.252 2°54.286 17.6454 4.526169 34.825698 -3.020363
2011-06-20 07:13:54 51°16.252 2°54.285 17.6503 4.525961 34.824598 -3.020363
2011-06-20 07:14:00 51°16.252 2°54.285 17.6554 4.525961 34.824598 -3.020363
2011-06-20 07:14:04 51°16.252 2°54.285 17.6542 4.525961 34.824598 -3.020363
2011-06-20 07:14:10 51°16.252 2°54.284 17.6529 4.525961 34.825286 -3.020363
2011-06-20 07:14:15 51°16.251 2°54.282 17.6569 4.525961 34.825286 -3.020363
2011-06-20 07:14:20 51°16.251 2°54.282 17.6506 4.525858 34.824392 -3.020363
2011-06-20 07:14:24 51°16.251 2°54.281 17.6506 4.525858 34.824392 -3.020363
2011-06-20 07:14:29 51°16.251 2°54.28 17.6532 4.525858 34.824392 -3.020363
2011-06-20 07:14:35 51°16.25 2°54.279 17.6528 4.525754 34.824186 -3.020363
2011-06-20 07:14:40 51°16.25 2°54.277 17.6465 4.52565 34.823292 -3.020363
2011-06-20 07:14:44 51°16.25 2°54.276 17.6566 4.52565 34.82398 -3.020363
2011-06-20 07:14:49 51°16.25 2°54.275 17.6582 4.52565 34.82398 -3.020363
2011-06-20 07:14:55 51°16.249 2°54.273 17.6573 4.52565 34.825357 -3.020363
2011-06-20 07:15:00 51°16.249 2°54.272 17.6635 4.52565 34.825357 -3.020363
2011-06-20 07:15:04 51°16.249 2°54.272 17.6617 4.52565 34.826046 -3.020363
2011-06-20 07:15:08 51°16.249 2°54.271 17.6607 4.525547 34.825151 -3.020363
2011-06-20 07:15:14 51°16.249 2°54.27 17.6639 4.525547 34.825151 -3.020363
2011-06-20 07:15:20 51°16.249 2°54.268 17.6628 4.525547 34.82584 -3.020363
2011-06-20 07:15:24 51°16.248 2°54.267 17.6637 4.525547 34.82584 -3.020363
2011-06-20 07:15:29 51°16.248 2°54.266 17.6632 4.525547 34.82584 -3.020363
2011-06-20 07:15:35 51°16.248 2°54.264 17.6613 4.525443 34.824945 -3.020363
2011-06-20 07:15:39 51°16.248 2°54.263 17.6654 4.525443 34.825634 -3.020363
2011-06-20 07:15:44 51°16.248 2°54.262 17.6671 4.525339 34.82474 -3.020363
2011-06-20 07:15:49 51°16.248 2°54.261 17.6668 4.525339 34.82474 -3.020363
2011-06-20 07:15:55 51°16.248 2°54.261 17.6663 4.525339 34.825428 -3.020363
2011-06-20 07:15:59 51°16.248 2°54.26 17.6689 4.525339 34.825428 -3.020363
2011-06-20 07:16:04 51°16.248 2°54.259 17.6737 4.525339 34.825428 -3.020363
2011-06-20 07:16:09 51°16.248 2°54.258 17.6759 4.525235 34.824534 -3.020363
2011-06-20 07:16:15 51°16.248 2°54.257 17.6774 4.525132 34.824328 -3.020363
2011-06-20 07:16:19 51°16.248 2°54.256 17.679 4.525132 34.825016 -3.020363
2011-06-20 07:16:24 51°16.248 2°54.255 17.6773 4.525132 34.825016 -3.020363
2011-06-20 07:16:29 51°16.248 2°54.254 17.6799 4.525132 34.825016 -3.020363
2011-06-20 07:16:35 51°16.248 2°54.252 17.6776 4.525132 34.825705 -3.020363
2011-06-20 07:16:39 51°16.248 2°54.251 17.6827 4.525132 34.825705 -3.020363
2011-06-20 07:16:44 51°16.248 2°54.25 17.6818 4.525028 34.825499 -3.020363
2011-06-20 07:16:49 51°16.248 2°54.249 17.6788 4.525028 34.825499 -3.020363
2011-06-20 07:16:55 51°16.248 2°54.247 17.6818 4.524924 34.824605 -3.020363
2011-06-20 07:16:59 51°16.248 2°54.246 17.6753 4.524924 34.824605 -3.020363
2011-06-20 07:17:04 51°16.249 2°54.245 17.6796 4.52482 34.824399 -3.020363
2011-06-20 07:17:09 51°16.249 2°54.244 17.6862 4.52482 34.82371 -3.020363
2011-06-20 07:17:14 51°16.249 2°54.243 17.6807 4.52482 34.824399 -3.020363
2011-06-20 07:17:20 51°16.249 2°54.241 17.6867 4.52482 34.825087 -3.020363
2011-06-20 07:17:24 51°16.25 2°54.24 17.6861 4.52482 34.825087 -3.020363
2011-06-20 07:17:29 51°16.25 2°54.238 17.682 4.52482 34.825087 -3.020363
2011-06-20 07:17:35 51°16.25 2°54.237 17.6846 4.524717 34.824193 -3.020363
2011-06-20 07:17:39 51°16.25 2°54.235 17.6917 4.524717 34.824881 -3.020363
2011-06-20 07:17:44 51°16.25 2°54.234 17.685 4.524717 34.824881 -3.020363
2011-06-20 07:17:49 51°16.25 2°54.233 17.6863 4.524717 34.824881 -3.020363
2011-06-20 07:17:55 51°16.251 2°54.231 17.6937 4.524613 34.825364 -3.020363
2011-06-20 07:17:59 51°16.251 2°54.23 17.688 4.524613 34.825364 -3.020363
2011-06-20 07:18:04 51°16.251 2°54.229 17.6899 4.524613 34.825364 -3.020363
2011-06-20 07:18:09 51°16.251 2°54.228 17.6898 4.524509 34.82447 -3.020363
2011-06-20 07:18:15 51°16.251 2°54.227 17.6883 4.524509 34.825158 -3.020363
2011-06-20 07:18:19 51°16.251 2°54.226 17.6923 4.524509 34.825158 -3.020363
2011-06-20 07:18:24 51°16.251 2°54.225 17.6957 4.524509 34.825847 -3.020363
2011-06-20 07:18:29 51°16.251 2°54.223 17.6966 4.524509 34.825847 -3.020363
2011-06-20 07:18:35 51°16.252 2°54.222 17.6901 4.524405 34.824953 -3.020363
2011-06-20 07:18:39 51°16.252 2°54.221 17.6976 4.524302 34.824058 -3.020363
2011-06-20 07:18:44 51°16.252 2°54.22 17.6942 4.524302 34.824058 -3.020363
2011-06-20 07:18:49 51°16.252 2°54.219 17.7038 4.524302 34.824747 -3.020363
2011-06-20 07:18:55 51°16.253 2°54.217 17.7012 4.524302 34.825435 -3.020363
2011-06-20 07:18:59 51°16.253 2°54.216 17.6994 4.524302 34.825435 -3.020363
2011-06-20 07:19:04 51°16.253 2°54.215 17.705 4.524198 34.824541 -3.020363
2011-06-20 07:19:09 51°16.253 2°54.213 17.7067 4.524094 34.823646 -3.020363
2011-06-20 07:19:15 51°16.254 2°54.212 17.7065 4.524094 34.823646 -3.020363
2011-06-20 07:19:20 51°16.254 2°54.211 17.7068 4.524094 34.824335 -3.020363
2011-06-20 07:19:24 51°16.254 2°54.21 17.7135 4.524094 34.824335 -3.020363
2011-06-20 07:19:29 51°16.254 2°54.209 17.714 4.524094 34.824335 -3.020363
2011-06-20 07:19:35 51°16.254 2°54.208 17.7101 4.524094 34.825024 -3.020363
2011-06-20 07:19:40 51°16.255 2°54.207 17.7138 4.524094 34.825024 -3.020363
2011-06-20 07:19:44 51°16.255 2°54.206 17.7096 4.523991 34.824818 -3.020363
2011-06-20 07:19:49 51°16.255 2°54.205 17.7047 4.523991 34.824818 -3.020363
2011-06-20 07:19:55 51°16.256 2°54.204 17.7123 4.523887 34.823923 -3.020363
2011-06-20 07:19:59 51°16.256 2°54.203 17.7125 4.523887 34.823923 -3.020363
2011-06-20 07:20:04 51°16.256 2°54.202 17.7145 4.523887 34.824612 -3.020363
2011-06-20 07:20:09 51°16.256 2°54.2 17.7152 4.523887 34.824612 -3.020363
2011-06-20 07:20:15 51°16.256 2°54.199 17.7167 4.523783 34.824406 -3.020363
2011-06-20 07:20:19 51°16.257 2°54.198 17.7193 4.523783 34.824406 -3.020363
2011-06-20 07:20:24 51°16.257 2°54.197 17.72 4.523679 34.823511 -3.020363
2011-06-20 07:20:29 51°16.257 2°54.197 17.7195 4.523679 34.823511 -3.020363
2011-06-20 07:20:35 51°16.257 2°54.195 17.7074 4.523679 34.823511 -3.020363
2011-06-20 07:20:39 51°16.257 2°54.194 17.7176 4.523679 34.8242 -3.020363
2011-06-20 07:20:44 51°16.257 2°54.193 17.7187 4.523679 34.824889 -3.020363
2011-06-20 07:20:49 51°16.258 2°54.192 17.7176 4.523679 34.824889 -3.020363
2011-06-20 07:20:55 51°16.258 2°54.19 17.725 4.523679 34.824889 -3.020363
2011-06-20 07:20:59 51°16.258 2°54.189 17.7203 4.523679 34.824889 -3.020363
2011-06-20 07:21:04 51°16.258 2°54.188 17.7281 4.523576 34.824683 -3.020363
2011-06-20 07:21:09 51°16.258 2°54.187 17.7265 4.523576 34.824683 -3.020363
2011-06-20 07:21:15 51°16.259 2°54.186 17.7242 4.523576 34.825372 -3.020363
2011-06-20 07:21:19 51°16.259 2°54.184 17.731 4.523576 34.825372 -3.020363
2011-06-20 07:21:24 51°16.259 2°54.183 17.7289 4.523472 34.824477 -3.020363
2011-06-20 07:21:29 51°16.259 2°54.182 17.7189 4.523472 34.824477 -3.020363
2011-06-20 07:21:34 51°16.259 2°54.181 17.7346 4.523368 34.824271 -3.020363
2011-06-20 07:21:40 51°16.26 2°54.179 17.737 4.523472 34.825166 -3.020363
2011-06-20 07:21:44 51°16.26 2°54.178 17.7317 4.523368 34.82496 -3.020363
2011-06-20 07:21:49 51°16.26 2°54.177 17.7267 4.523472 34.825855 -3.020363
2011-06-20 07:21:54 51°16.26 2°54.176 17.7307 4.523368 34.82496 -3.020363
2011-06-20 07:22:00 51°16.26 2°54.175 17.7375 4.523368 34.82496 -3.020363
2011-06-20 07:22:04 51°16.261 2°54.174 17.7313 4.523264 34.824755 -3.020363
2011-06-20 07:22:08 51°16.261 2°54.173 17.7388 4.523264 34.824755 -3.020363
2011-06-20 07:22:14 51°16.261 2°54.171 17.7447 4.523161 34.824549 -3.020363
2011-06-20 07:22:19 51°16.261 2°54.171 17.7398 4.523161 34.82386 -3.020363
2011-06-20 07:22:24 51°16.262 2°54.17 17.7442 4.523161 34.824549 -3.020363
2011-06-20 07:22:28 51°16.263 2°54.171 17.7451 4.523161 34.824549 -3.020363
2011-06-20 07:22:34 51°16.265 2°54.172 17.7435 4.523161 34.824549 -3.020363
2011-06-20 07:22:40 51°16.267 2°54.174 17.7478 4.523161 34.825238 -3.020363
2011-06-20 07:22:44 51°16.269 2°54.176 17.7444 4.523161 34.825238 -3.020363
2011-06-20 07:22:48 51°16.272 2°54.178 17.7516 4.523161 34.825927 -3.020363
2011-06-20 07:22:54 51°16.277 2°54.181 17.7568 4.523057 34.825721 -3.020363
2011-06-20 07:23:00 51°16.282 2°54.183 17.7581 4.523057 34.825721 -3.020363
2011-06-20 07:23:04 51°16.287 2°54.184 17.7514 4.522953 34.825515 -3.020363
2011-06-20 07:23:08 51°16.291 2°54.185 17.7621 4.522953 34.825515 -3.020363
2011-06-20 07:23:14 51°16.299 2°54.184 17.7611 4.522953 34.826893 -3.020363
2011-06-20 07:23:20 51°16.307 2°54.182 17.7498 4.522953 34.827582 -3.020363
2011-06-20 07:23:24 51°16.312 2°54.179 17.759 4.522953 34.828272 -3.020363
2011-06-20 07:23:28 51°16.318 2°54.176 17.7706 4.522953 34.828272 -3.020363
2011-06-20 07:23:34 51°16.326 2°54.168 17.7627 4.52285 34.828066 -3.020363
2011-06-20 07:23:40 51°16.335 2°54.16 17.7646 4.52285 34.828066 -3.020363
2011-06-20 07:23:44 51°16.341 2°54.153 17.7663 4.522953 34.828961 -3.020363
2011-06-20 07:23:49 51°16.348 2°54.143 17.7677 4.52285 34.828066 -3.020363
2011-06-20 07:23:54 51°16.355 2°54.133 17.7635 4.522746 34.826482 -3.020363
2011-06-20 07:24:00 51°16.365 2°54.119 17.7521 4.522746 34.826482 -3.020363
2011-06-20 07:24:04 51°16.371 2°54.109 17.762 4.522746 34.826482 -3.020363
2011-06-20 07:24:09 51°16.38 2°54.097 17.7516 4.522746 34.825792 -3.020363
2011-06-20 07:24:15 51°16.392 2°54.081 17.7497 4.522538 34.823313 -3.020363
2011-06-20 07:24:20 51°16.402 2°54.068 17.749 4.522642 34.824897 -3.020363
2011-06-20 07:24:24 51°16.41 2°54.057 17.7626 4.522642 34.824897 -3.020363
2011-06-20 07:24:29 51°16.42 2°54.043 17.7682 4.522642 34.824897 -3.020363
2011-06-20 07:24:35 51°16.433 2°54.026 17.7646 4.522538 34.824002 -3.020363
2011-06-20 07:24:39 51°16.442 2°54.015 17.7615 4.522538 34.824002 -3.020363
2011-06-20 07:24:44 51°16.453 2°54 17.7633 4.522538 34.824692 -3.020363
2011-06-20 07:24:49 51°16.465 2°53.985 17.7672 4.522642 34.825587 -3.020363
2011-06-20 07:24:55 51°16.478 2°53.967 17.7618 4.522538 34.825381 -3.020363
2011-06-20 07:24:59 51°16.488 2°53.956 17.7794 4.522538 34.825381 -3.020363
2011-06-20 07:25:04 51°16.499 2°53.941 17.7708 4.522435 34.824486 -3.020363
2011-06-20 07:25:09 51°16.511 2°53.926 17.7755 4.522435 34.824486 -3.020363
2011-06-20 07:25:15 51°16.525 2°53.908 17.7668 4.522435 34.824486 -3.020363
2011-06-20 07:25:19 51°16.535 2°53.896 17.7705 4.522435 34.825175 -3.020363
2011-06-20 07:25:24 51°16.547 2°53.881 17.7904 4.522331 34.824969 -3.020363
2011-06-20 07:25:29 51°16.56 2°53.865 17.7832 4.522331 34.824969 -3.020363
2011-06-20 07:25:35 51°16.575 2°53.844 17.7818 4.522331 34.825658 -3.020363
2011-06-20 07:25:39 51°16.585 2°53.831 17.7799 4.522331 34.825658 -3.020363
2011-06-20 07:25:44 51°16.597 2°53.813 17.7795 4.522331 34.826348 -3.020363
2011-06-20 07:25:49 51°16.61 2°53.794 17.7851 4.522331 34.826348 -3.020363
2011-06-20 07:25:55 51°16.625 2°53.771 17.7899 4.522227 34.826142 -3.020363
2011-06-20 07:26:00 51°16.638 2°53.751 17.7859 4.522227 34.826142 -3.020363
2011-06-20 07:26:04 51°16.648 2°53.735 17.7943 4.522227 34.826142 -3.020363
2011-06-20 07:26:09 51°16.66 2°53.714 17.7789 4.522227 34.826831 -3.020363
2011-06-20 07:26:15 51°16.675 2°53.689 17.7889 4.522123 34.825936 -3.020363
2011-06-20 07:26:20 51°16.687 2°53.668 17.781 4.522123 34.825936 -3.020363
2011-06-20 07:26:24 51°16.697 2°53.651 17.7897 4.522123 34.825936 -3.020363
2011-06-20 07:26:29 51°16.709 2°53.629 17.7934 4.522123 34.825936 -3.020363
2011-06-20 07:26:35 51°16.724 2°53.602 17.7929 4.52202 34.82573 -3.020363
2011-06-20 07:26:39 51°16.733 2°53.584 17.7949 4.52202 34.82573 -3.020363
2011-06-20 07:26:44 51°16.745 2°53.562 17.7879 4.52202 34.82573 -3.020363
2011-06-20 07:26:49 51°16.757 2°53.54 17.79 4.52202 34.82573 -3.020363
2011-06-20 07:26:55 51°16.772 2°53.513 17.7979 4.52202 34.82573 -3.020363
2011-06-20 07:26:59 51°16.781 2°53.495 17.7989 4.52202 34.82573 -3.020363
2011-06-20 07:27:04 51°16.794 2°53.474 17.7971 4.52202 34.826419 -3.020363
2011-06-20 07:27:09 51°16.806 2°53.452 17.7906 4.521916 34.825524 -3.020363
2011-06-20 07:27:15 51°16.82 2°53.426 17.7908 4.521812 34.824629 -3.020363
2011-06-20 07:27:19 51°16.83 2°53.409 17.7986 4.521916 34.826213 -3.020363
2011-06-20 07:27:24 51°16.843 2°53.388 17.7915 4.521916 34.826213 -3.020363
2011-06-20 07:27:29 51°16.856 2°53.367 17.8044 4.521916 34.826213 -3.020363
2011-06-20 07:27:35 51°16.872 2°53.343 17.8155 4.521812 34.825318 -3.020363
2011-06-20 07:27:39 51°16.882 2°53.327 17.8144 4.521812 34.826008 -3.020363
2011-06-20 07:27:44 51°16.895 2°53.307 17.8347 4.521916 34.826213 -3.020363
2011-06-20 07:27:49 51°16.908 2°53.287 17.8148 4.521605 34.824907 -3.020363
2011-06-20 07:27:55 51°16.921 2°53.263 17.81 4.521812 34.827386 -3.020363
2011-06-20 07:27:59 51°16.931 2°53.246 17.8211 4.521812 34.827386 -3.020363
2011-06-20 07:28:04 51°16.942 2°53.224 17.8183 4.521709 34.825802 -3.020363
2011-06-20 07:28:09 51°16.953 2°53.202 17.8258 4.521709 34.825802 -3.020363
2011-06-20 07:28:15 51°16.965 2°53.175 17.8187 4.521605 34.825596 -3.020363
2011-06-20 07:28:20 51°16.975 2°53.151 17.8283 4.521709 34.827181 -3.020363
2011-06-20 07:28:24 51°16.983 2°53.132 17.8209 4.521605 34.826285 -3.020363
2011-06-20 07:28:29 51°16.992 2°53.108 17.8358 4.521605 34.826285 -3.020363
2011-06-20 07:28:35 51°17.004 2°53.079 17.8248 4.521501 34.82539 -3.020363
2011-06-20 07:28:40 51°17.013 2°53.055 17.8292 4.521605 34.826975 -3.020363
2011-06-20 07:28:44 51°17.021 2°53.035 17.8242 4.521501 34.826079 -3.020363
2011-06-20 07:28:49 51°17.031 2°53.01 17.8323 4.521501 34.826079 -3.020363
2011-06-20 07:28:55 51°17.042 2°52.981 17.8217 4.521501 34.826769 -3.020363
2011-06-20 07:28:59 51°17.049 2°52.961 17.8173 4.521501 34.826769 -3.020363
2011-06-20 07:29:04 51°17.059 2°52.937 17.8263 4.521501 34.826769 -3.020363
2011-06-20 07:29:09 51°17.069 2°52.911 17.8313 4.521397 34.826563 -3.020363
2011-06-20 07:29:15 51°17.081 2°52.881 17.8334 4.521397 34.826563 -3.020363
2011-06-20 07:29:19 51°17.089 2°52.861 17.8278 4.521397 34.826563 -3.020363
2011-06-20 07:29:24 51°17.099 2°52.837 17.8308 4.521397 34.826563 -3.020363
2011-06-20 07:29:29 51°17.11 2°52.813 17.837 4.521397 34.826563 -3.020363
2011-06-20 07:29:35 51°17.123 2°52.784 17.8266 4.521294 34.825668 -3.020363
2011-06-20 07:29:39 51°17.132 2°52.765 17.8215 4.521294 34.825668 -3.020363
2011-06-20 07:29:44 51°17.143 2°52.742 17.8304 4.52119 34.825462 -3.020363
2011-06-20 07:29:49 51°17.155 2°52.719 17.8409 4.521294 34.825668 -3.020363
2011-06-20 07:29:55 51°17.169 2°52.693 17.8414 4.52119 34.825462 -3.020363
2011-06-20 07:29:59 51°17.179 2°52.676 17.8319 4.52119 34.825462 -3.020363
2011-06-20 07:30:04 51°17.191 2°52.655 17.8418 4.521294 34.826357 -3.020363
2011-06-20 07:30:09 51°17.204 2°52.634 17.8461 4.521086 34.825256 -3.020363
2011-06-20 07:30:15 51°17.219 2°52.608 17.8468 4.521086 34.825946 -3.020363
2011-06-20 07:30:20 51°17.231 2°52.587 17.8571 4.52119 34.826841 -3.020363
2011-06-20 07:30:24 51°17.241 2°52.571 17.8478 4.520982 34.82505 -3.020363
2011-06-20 07:30:29 51°17.254 2°52.549 17.8539 4.520982 34.82505 -3.020363
2011-06-20 07:30:35 51°17.269 2°52.524 17.8516 4.520982 34.82574 -3.020363
2011-06-20 07:30:40 51°17.281 2°52.502 17.8538 4.521086 34.826635 -3.020363
2011-06-20 07:30:44 51°17.291 2°52.485 17.8454 4.520982 34.826429 -3.020363
2011-06-20 07:30:49 51°17.303 2°52.464 17.8564 4.520982 34.827119 -3.020363
2011-06-20 07:30:55 51°17.318 2°52.438 17.8397 4.520982 34.827119 -3.020363
2011-06-20 07:31:00 51°17.331 2°52.417 17.8602 4.520982 34.827119 -3.020363
2011-06-20 07:31:04 51°17.341 2°52.401 17.8568 4.520879 34.826223 -3.020363
2011-06-20 07:31:09 51°17.354 2°52.38 17.855 4.520775 34.825328 -3.020363
2011-06-20 07:31:15 51°17.37 2°52.356 17.8614 4.520879 34.826913 -3.020363
2011-06-20 07:31:20 51°17.383 2°52.337 17.8519 4.520879 34.826913 -3.020363
2011-06-20 07:31:24 51°17.394 2°52.322 17.8578 4.520775 34.826707 -3.020363
2011-06-20 07:31:29 51°17.408 2°52.302 17.8524 4.520775 34.826707 -3.020363
2011-06-20 07:31:35 51°17.425 2°52.28 17.862 4.520775 34.826707 -3.020363
2011-06-20 07:31:39 51°17.436 2°52.266 17.8604 4.520671 34.826501 -3.020363
2011-06-20 07:31:44 51°17.451 2°52.248 17.8608 4.520671 34.826501 -3.020363
2011-06-20 07:31:49 51°17.465 2°52.231 17.8752 4.520775 34.828086 -3.020363
2011-06-20 07:31:54 51°17.48 2°52.213 17.8705 4.520671 34.827191 -3.020363
2011-06-20 07:31:59 51°17.495 2°52.196 17.8676 4.520671 34.827191 -3.020363
2011-06-20 07:32:04 51°17.509 2°52.179 17.874 4.520568 34.826296 -3.020363
2011-06-20 07:32:09 51°17.524 2°52.161 17.8762 4.520671 34.827191 -3.020363
2011-06-20 07:32:14 51°17.538 2°52.143 17.8738 4.520568 34.826985 -3.020363
2011-06-20 07:32:20 51°17.556 2°52.122 17.8794 4.520568 34.826985 -3.020363
2011-06-20 07:32:24 51°17.567 2°52.107 17.8796 4.520464 34.826779 -3.020363
2011-06-20 07:32:29 51°17.581 2°52.089 17.8641 4.520464 34.826779 -3.020363
2011-06-20 07:32:34 51°17.595 2°52.07 17.8731 4.520671 34.82857 -3.020363
2011-06-20 07:32:40 51°17.611 2°52.047 17.8829 4.52036 34.826574 -3.020363
2011-06-20 07:32:44 51°17.622 2°52.031 17.8812 4.520464 34.827469 -3.020363
2011-06-20 07:32:49 51°17.635 2°52.011 17.8837 4.52036 34.827263 -3.020363
2011-06-20 07:32:55 51°17.651 2°51.988 17.8804 4.52036 34.827263 -3.020363
2011-06-20 07:33:00 51°17.665 2°51.969 17.8693 4.52036 34.827263 -3.020363
2011-06-20 07:33:04 51°17.675 2°51.953 17.8756 4.52036 34.827263 -3.020363
2011-06-20 07:33:09 51°17.689 2°51.934 17.8883 4.52036 34.827953 -3.020363
2011-06-20 07:33:15 51°17.706 2°51.912 17.8828 4.52036 34.827953 -3.020363
2011-06-20 07:33:20 51°17.72 2°51.893 17.8881 4.520256 34.827057 -3.020363
2011-06-20 07:33:24 51°17.731 2°51.879 17.8795 4.520153 34.826852 -3.020363
2011-06-20 07:33:29 51°17.745 2°51.861 17.879 4.520153 34.826852 -3.020363
2011-06-20 07:33:35 51°17.763 2°51.84 17.8922 4.520153 34.826852 -3.020363
2011-06-20 07:33:40 51°17.777 2°51.823 17.8911 4.520256 34.828437 -3.020363
2011-06-20 07:33:44 51°17.789 2°51.809 17.8852 4.520153 34.827541 -3.020363
2011-06-20 07:33:49 51°17.803 2°51.791 17.8983 4.520153 34.827541 -3.020363
2011-06-20 07:33:54 51°17.818 2°51.774 17.9001 4.520049 34.826646 -3.020363
2011-06-20 07:33:59 51°17.832 2°51.756 17.8908 4.520049 34.826646 -3.020363
2011-06-20 07:34:04 51°17.847 2°51.738 17.8987 4.520153 34.828231 -3.020363
2011-06-20 07:34:09 51°17.861 2°51.72 17.9045 4.520049 34.827336 -3.020363
2011-06-20 07:34:15 51°17.878 2°51.698 17.9021 4.520049 34.828025 -3.020363
2011-06-20 07:34:20 51°17.892 2°51.679 17.9084 4.519945 34.82713 -3.020363
2011-06-20 07:34:24 51°17.903 2°51.663 17.8967 4.519945 34.82713 -3.020363
2011-06-20 07:34:29 51°17.916 2°51.643 17.8965 4.519945 34.82713 -3.020363
2011-06-20 07:34:35 51°17.932 2°51.62 17.901 4.519945 34.82782 -3.020363
2011-06-20 07:34:39 51°17.943 2°51.603 17.9036 4.519841 34.826924 -3.020363
2011-06-20 07:34:44 51°17.956 2°51.583 17.9039 4.519945 34.828509 -3.020363
2011-06-20 07:34:49 51°17.97 2°51.563 17.9082 4.519841 34.827614 -3.020363
2011-06-20 07:34:54 51°17.983 2°51.543 17.9041 4.519842 34.828304 -3.020363
2011-06-20 07:35:00 51°18 2°51.519 17.9026 4.519842 34.828304 -3.020363
2011-06-20 07:35:04 51°18.011 2°51.503 17.8911 4.519842 34.828304 -3.020363
2011-06-20 07:35:09 51°18.024 2°51.484 17.8993 4.519738 34.828098 -3.020363
2011-06-20 07:35:14 51°18.039 2°51.465 17.9109 4.519738 34.828098 -3.020363
2011-06-20 07:35:20 51°18.056 2°51.442 17.914 4.519738 34.828098 -3.020363
2011-06-20 07:35:24 51°18.067 2°51.428 17.9149 4.519634 34.827892 -3.020363
2011-06-20 07:35:29 51°18.082 2°51.409 17.9077 4.519634 34.827892 -3.020363
2011-06-20 07:35:35 51°18.1 2°51.388 17.9173 4.519738 34.828788 -3.020363
2011-06-20 07:35:40 51°18.114 2°51.37 17.9138 4.519634 34.828582 -3.020363
2011-06-20 07:35:44 51°18.126 2°51.356 17.9087 4.519634 34.828582 -3.020363
2011-06-20 07:35:49 51°18.141 2°51.338 17.9106 4.51953 34.827686 -3.020363
2011-06-20 07:35:55 51°18.158 2°51.316 17.9043 4.519634 34.829272 -3.020363
2011-06-20 07:35:59 51°18.169 2°51.302 17.9089 4.519634 34.829272 -3.020363
2011-06-20 07:36:04 51°18.184 2°51.283 17.9224 4.51953 34.828376 -3.020363
2011-06-20 07:36:09 51°18.198 2°51.265 17.9217 4.51953 34.828376 -3.020363
2011-06-20 07:36:15 51°18.215 2°51.244 17.9171 4.519427 34.827481 -3.020363
2011-06-20 07:36:19 51°18.225 2°51.23 17.9157 4.519427 34.82817 -3.020363
2011-06-20 07:36:24 51°18.239 2°51.213 17.9161 4.519427 34.82817 -3.020363
2011-06-20 07:36:29 51°18.252 2°51.196 17.9246 4.519427 34.82817 -3.020363
2011-06-20 07:36:35 51°18.268 2°51.177 17.9245 4.519323 34.827965 -3.020363
2011-06-20 07:36:39 51°18.279 2°51.164 17.9266 4.519323 34.827965 -3.020363
2011-06-20 07:36:44 51°18.292 2°51.148 17.9353 4.519427 34.82955 -3.020363
2011-06-20 07:36:49 51°18.305 2°51.133 17.9339 4.519219 34.827759 -3.020363
2011-06-20 07:36:54 51°18.318 2°51.118 17.9316 4.519219 34.828449 -3.020363
2011-06-20 07:36:59 51°18.331 2°51.104 17.9386 4.519219 34.828449 -3.020363
2011-06-20 07:37:04 51°18.343 2°51.089 17.9416 4.519219 34.829139 -3.020363
2011-06-20 07:37:09 51°18.355 2°51.075 17.9303 4.519323 34.830035 -3.020363
2011-06-20 07:37:15 51°18.37 2°51.058 17.9387 4.519115 34.828243 -3.020363
2011-06-20 07:37:20 51°18.381 2°51.043 17.9422 4.519115 34.828933 -3.020363
2011-06-20 07:37:24 51°18.39 2°51.032 17.9382 4.519115 34.828933 -3.020363
2011-06-20 07:37:29 51°18.401 2°51.017 17.934 4.519115 34.828933 -3.020363
2011-06-20 07:37:34 51°18.412 2°51.003 17.9244 4.519115 34.828933 -3.020363
2011-06-20 07:37:40 51°18.424 2°50.986 17.9254 4.519012 34.828727 -3.020363
2011-06-20 07:37:44 51°18.431 2°50.976 17.9253 4.519012 34.828037 -3.020363
2011-06-20 07:37:49 51°18.442 2°50.967 17.9202 4.518908 34.827832 -3.020363
2011-06-20 07:37:55 51°18.453 2°50.959 17.9386 4.518908 34.827832 -3.020363
2011-06-20 07:38:00 51°18.463 2°50.955 17.938 4.518908 34.827832 -3.020363
2011-06-20 07:38:04 51°18.47 2°50.953 17.9435 4.518908 34.829212 -3.020363
2011-06-20 07:38:09 51°18.478 2°50.952 17.9376 4.518908 34.829902 -3.020363
2011-06-20 07:38:15 51°18.487 2°50.952 17.9455 4.518804 34.829696 -3.020363
2011-06-20 07:38:19 51°18.492 2°50.953 17.9502 4.518804 34.829696 -3.020363
2011-06-20 07:38:24 51°18.499 2°50.955 17.9486 4.518804 34.829696 -3.020363
2011-06-20 07:38:29 51°18.505 2°50.957 17.951 4.518804 34.829696 -3.020363
2011-06-20 07:38:35 51°18.511 2°50.96 17.9523 4.518804 34.830386 -3.020363
2011-06-20 07:38:39 51°18.515 2°50.962 17.9535 4.518804 34.830386 -3.020363
2011-06-20 07:38:44 51°18.519 2°50.965 17.9519 4.518701 34.82949 -3.020363
2011-06-20 07:38:49 51°18.524 2°50.967 17.9553 4.518701 34.82949 -3.020363
2011-06-20 07:38:55 51°18.527 2°50.97 17.9558 4.518597 34.828594 -3.020363
2011-06-20 07:38:59 51°18.529 2°50.971 17.9615 4.518597 34.828594 -3.020363
2011-06-20 07:39:04 51°18.531 2°50.972 17.9657 4.518597 34.828594 -3.020363
2011-06-20 07:39:09 51°18.532 2°50.972 17.9601 4.518597 34.828594 -3.020363
2011-06-20 07:39:15 51°18.533 2°50.971 17.9645 4.518597 34.829284 -3.020363
2011-06-20 07:39:20 51°18.533 2°50.97 17.9651 4.518493 34.828389 -3.020363
2011-06-20 07:39:24 51°18.533 2°50.969 17.9696 4.518493 34.828389 -3.020363
2011-06-20 07:39:29 51°18.534 2°50.968 17.9646 4.518493 34.828389 -3.020363
2011-06-20 07:39:35 51°18.534 2°50.966 17.9703 4.518493 34.828389 -3.020363
2011-06-20 07:39:40 51°18.535 2°50.965 17.9587 4.518389 34.828183 -3.020363
2011-06-20 07:39:44 51°18.535 2°50.964 17.9727 4.518389 34.828183 -3.020363
2011-06-20 07:39:49 51°18.535 2°50.963 17.974 4.518389 34.829563 -3.020363
2011-06-20 07:39:54 51°18.536 2°50.961 17.9757 4.518389 34.829563 -3.020363
2011-06-20 07:40:00 51°18.536 2°50.96 17.9772 4.518389 34.829563 -3.020363
2011-06-20 07:40:04 51°18.537 2°50.958 17.9752 4.518286 34.829357 -3.020363
2011-06-20 07:40:09 51°18.537 2°50.957 17.9706 4.518286 34.829357 -3.020363
2011-06-20 07:40:14 51°18.537 2°50.955 17.9776 4.518286 34.829357 -3.020363
2011-06-20 07:40:19 51°18.537 2°50.954 17.9814 4.518286 34.829357 -3.020363
2011-06-20 07:40:24 51°18.538 2°50.953 17.9819 4.518182 34.827771 -3.020363
2011-06-20 07:40:29 51°18.538 2°50.951 17.9763 4.518182 34.827771 -3.020363
2011-06-20 07:40:34 51°18.539 2°50.949 17.9807 4.518182 34.828461 -3.020363
2011-06-20 07:40:39 51°18.539 2°50.948 17.9801 4.518182 34.828461 -3.020363
2011-06-20 07:40:44 51°18.54 2°50.946 17.9763 4.518078 34.827566 -3.020363
2011-06-20 07:40:49 51°18.54 2°50.945 17.9758 4.518182 34.829152 -3.020363
2011-06-20 07:40:55 51°18.54 2°50.943 17.9858 4.518182 34.829842 -3.020363
2011-06-20 07:40:59 51°18.54 2°50.942 17.9784 4.518182 34.829842 -3.020363
2011-06-20 07:41:04 51°18.541 2°50.94 17.9857 4.518078 34.829636 -3.020363
2011-06-20 07:41:09 51°18.541 2°50.939 17.9896 4.518078 34.830326 -3.020363
2011-06-20 07:41:15 51°18.541 2°50.937 17.9885 4.517974 34.82943 -3.020363
2011-06-20 07:41:19 51°18.542 2°50.936 17.9876 4.517974 34.82943 -3.020363
2011-06-20 07:41:24 51°18.542 2°50.935 17.9862 4.517974 34.82943 -3.020363
2011-06-20 07:41:29 51°18.542 2°50.933 17.9928 4.517974 34.82943 -3.020363
2011-06-20 07:41:35 51°18.543 2°50.931 17.9938 4.517974 34.830121 -3.020363
2011-06-20 07:41:40 51°18.543 2°50.93 17.996 4.517974 34.830121 -3.020363
2011-06-20 07:41:44 51°18.543 2°50.929 17.9927 4.517974 34.830121 -3.020363
2011-06-20 07:41:49 51°18.544 2°50.927 17.9931 4.517871 34.829225 -3.020363
2011-06-20 07:41:54 51°18.544 2°50.926 17.9989 4.517871 34.829225 -3.020363
2011-06-20 07:41:59 51°18.544 2°50.925 17.9984 4.517871 34.829225 -3.020363
2011-06-20 07:42:04 51°18.545 2°50.923 18.0053 4.517767 34.828329 -3.020363
2011-06-20 07:42:09 51°18.545 2°50.921 17.9981 4.517767 34.829019 -3.020363
2011-06-20 07:42:14 51°18.545 2°50.92 18.0054 4.517767 34.829019 -3.020363
2011-06-20 07:42:20 51°18.545 2°50.918 18.0013 4.517663 34.828813 -3.020363
2011-06-20 07:42:24 51°18.546 2°50.917 18.0025 4.517767 34.829709 -3.020363
2011-06-20 07:42:29 51°18.546 2°50.916 18 4.517767 34.829709 -3.020363
2011-06-20 07:42:34 51°18.546 2°50.914 18.0051 4.517663 34.828813 -3.020363
2011-06-20 07:42:40 51°18.547 2°50.913 18.0075 4.517663 34.829504 -3.020363
2011-06-20 07:42:44 51°18.547 2°50.912 18.0086 4.51756 34.828607 -3.020363
2011-06-20 07:42:49 51°18.547 2°50.91 18.0145 4.517456 34.827711 -3.020363
2011-06-20 07:42:55 51°18.548 2°50.908 18.0121 4.51756 34.828607 -3.020363
2011-06-20 07:42:59 51°18.548 2°50.907 18.0128 4.51756 34.828607 -3.020363
2011-06-20 07:43:04 51°18.548 2°50.906 18.0096 4.51756 34.829298 -3.020363
2011-06-20 07:43:09 51°18.549 2°50.904 18.0143 4.51756 34.829298 -3.020363
2011-06-20 07:43:15 51°18.549 2°50.902 18.0174 4.517456 34.828402 -3.020363
2011-06-20 07:43:19 51°18.549 2°50.901 18.0149 4.517456 34.829092 -3.020363
2011-06-20 07:43:24 51°18.55 2°50.9 18.0157 4.517456 34.829092 -3.020363
2011-06-20 07:43:29 51°18.55 2°50.898 18.0156 4.517456 34.829092 -3.020363
2011-06-20 07:43:35 51°18.551 2°50.896 18.017 4.517456 34.829092 -3.020363
2011-06-20 07:43:39 51°18.551 2°50.895 18.016 4.517352 34.828886 -3.020363
2011-06-20 07:43:44 51°18.551 2°50.894 18.021 4.517352 34.828886 -3.020363
2011-06-20 07:43:49 51°18.552 2°50.892 18.0178 4.517352 34.829577 -3.020363
2011-06-20 07:43:55 51°18.552 2°50.891 18.0172 4.517352 34.829577 -3.020363
2011-06-20 07:44:00 51°18.552 2°50.889 18.024 4.517352 34.829577 -3.020363
2011-06-20 07:44:04 51°18.552 2°50.888 18.0233 4.517248 34.828681 -3.020363
2011-06-20 07:44:09 51°18.553 2°50.886 18.0197 4.517248 34.828681 -3.020363
2011-06-20 07:44:15 51°18.553 2°50.885 18.0294 4.517248 34.829371 -3.020363
2011-06-20 07:44:20 51°18.554 2°50.883 18.0304 4.517248 34.830061 -3.020363
2011-06-20 07:44:24 51°18.554 2°50.882 18.0323 4.517248 34.830061 -3.020363
2011-06-20 07:44:29 51°18.554 2°50.88 18.0384 4.517248 34.830061 -3.020363
2011-06-20 07:44:35 51°18.555 2°50.879 18.0371 4.517145 34.829165 -3.020363
2011-06-20 07:44:40 51°18.556 2°50.878 18.0416 4.517145 34.829165 -3.020363
2011-06-20 07:44:44 51°18.556 2°50.879 18.0382 4.517145 34.829165 -3.020363
2011-06-20 07:44:49 51°18.557 2°50.879 18.0429 4.517145 34.829165 -3.020363
2011-06-20 07:44:54 51°18.559 2°50.881 18.0424 4.517041 34.828269 -3.020363
2011-06-20 07:44:59 51°18.561 2°50.885 18.0503 4.517041 34.828269 -3.020363
2011-06-20 07:45:04 51°18.562 2°50.89 18.0418 4.517041 34.828959 -3.020363
2011-06-20 07:45:09 51°18.565 2°50.897 18.037 4.517041 34.828959 -3.020363
2011-06-20 07:45:14 51°18.567 2°50.906 18.0406 4.517041 34.828959 -3.020363
2011-06-20 07:45:20 51°18.57 2°50.92 18.0457 4.516937 34.828063 -3.020363
2011-06-20 07:45:24 51°18.573 2°50.93 18.0424 4.516937 34.828754 -3.020363
2011-06-20 07:45:29 51°18.577 2°50.944 18.0446 4.516937 34.828754 -3.020363
2011-06-20 07:45:34 51°18.58 2°50.96 18.0472 4.517041 34.82965 -3.020363
2011-06-20 07:45:40 51°18.586 2°50.98 18.0464 4.516937 34.828754 -3.020363
2011-06-20 07:45:44 51°18.589 2°50.994 18.0475 4.516937 34.829444 -3.020363
2011-06-20 07:45:49 51°18.594 2°51.014 18.0377 4.516937 34.829444 -3.020363
2011-06-20 07:45:55 51°18.6 2°51.038 18.0493 4.516833 34.829238 -3.020363
2011-06-20 07:45:59 51°18.605 2°51.054 18.0346 4.516833 34.829238 -3.020363
2011-06-20 07:46:04 51°18.611 2°51.076 18.0463 4.516833 34.828548 -3.020363
2011-06-20 07:46:09 51°18.616 2°51.098 18.0435 4.51673 34.828342 -3.020363
2011-06-20 07:46:15 51°18.623 2°51.126 18.0402 4.51673 34.828342 -3.020363
2011-06-20 07:46:20 51°18.629 2°51.15 18.0486 4.51673 34.829033 -3.020363
2011-06-20 07:46:24 51°18.634 2°51.169 18.047 4.51673 34.829033 -3.020363
2011-06-20 07:46:29 51°18.64 2°51.193 18.0446 4.51673 34.829033 -3.020363
2011-06-20 07:46:35 51°18.647 2°51.222 18.0516 4.51673 34.829723 -3.020363
2011-06-20 07:46:40 51°18.653 2°51.247 18.0584 4.51673 34.829723 -3.020363
2011-06-20 07:46:44 51°18.658 2°51.267 18.0515 4.516626 34.828827 -3.020363
2011-06-20 07:46:49 51°18.664 2°51.292 18.0598 4.516626 34.829518 -3.020363
2011-06-20 07:46:55 51°18.671 2°51.322 18.0478 4.516626 34.828827 -3.020363
2011-06-20 07:47:00 51°18.677 2°51.347 18.0581 4.516626 34.828827 -3.020363
2011-06-20 07:47:04 51°18.682 2°51.367 18.066 4.516626 34.829518 -3.020363
2011-06-20 07:47:09 51°18.688 2°51.392 18.0567 4.516626 34.830208 -3.020363
2011-06-20 07:47:15 51°18.695 2°51.422 18.0486 4.516522 34.828621 -3.020363
2011-06-20 07:47:19 51°18.7 2°51.442 18.054 4.516522 34.828621 -3.020363
2011-06-20 07:47:24 51°18.705 2°51.467 18.0662 4.516626 34.829518 -3.020363
2011-06-20 07:47:29 51°18.71 2°51.493 18.0507 4.516626 34.829518 -3.020363
2011-06-20 07:47:34 51°18.716 2°51.518 18.0719 4.516522 34.828621 -3.020363
2011-06-20 07:47:39 51°18.72 2°51.543 18.0735 4.516419 34.828416 -3.020363
2011-06-20 07:47:44 51°18.725 2°51.569 18.0699 4.516419 34.828416 -3.020363
2011-06-20 07:47:48 51°18.729 2°51.59 18.0736 4.516419 34.829106 -3.020363
2011-06-20 07:47:54 51°18.735 2°51.621 18.0678 4.516419 34.829106 -3.020363
2011-06-20 07:47:59 51°18.739 2°51.646 18.0773 4.516419 34.829106 -3.020363
2011-06-20 07:48:04 51°18.744 2°51.672 18.0813 4.516419 34.829106 -3.020363
2011-06-20 07:48:08 51°18.748 2°51.693 18.0641 4.516419 34.829797 -3.020363
2011-06-20 07:48:14 51°18.753 2°51.724 18.0861 4.516315 34.82821 -3.020363
2011-06-20 07:48:19 51°18.758 2°51.75 18.0747 4.516315 34.8289 -3.020363
2011-06-20 07:48:24 51°18.762 2°51.775 18.0827 4.516315 34.8289 -3.020363
2011-06-20 07:48:28 51°18.765 2°51.796 18.0836 4.516315 34.8289 -3.020363
2011-06-20 07:48:34 51°18.77 2°51.827 18.0789 4.516211 34.828695 -3.020363
2011-06-20 07:48:40 51°18.775 2°51.858 18.08 4.516315 34.829591 -3.020363
2011-06-20 07:48:44 51°18.779 2°51.879 18.0858 4.516211 34.828695 -3.020363
2011-06-20 07:48:48 51°18.782 2°51.9 18.0984 4.516211 34.829385 -3.020363
2011-06-20 07:48:54 51°18.787 2°51.931 18.083 4.516107 34.828489 -3.020363
2011-06-20 07:49:00 51°18.793 2°51.961 18.0919 4.516107 34.828489 -3.020363
2011-06-20 07:49:04 51°18.796 2°51.982 18.0812 4.516211 34.830076 -3.020363
2011-06-20 07:49:09 51°18.801 2°52.008 18.1031 4.516211 34.829385 -3.020363
2011-06-20 07:49:14 51°18.805 2°52.034 18.0936 4.516107 34.82987 -3.020363
2011-06-20 07:49:19 51°18.811 2°52.059 18.0988 4.516107 34.82987 -3.020363
2011-06-20 07:49:24 51°18.815 2°52.084 18.0894 4.516004 34.828974 -3.020363
2011-06-20 07:49:29 51°18.821 2°52.109 18.0912 4.516004 34.828974 -3.020363
2011-06-20 07:49:34 51°18.826 2°52.135 18.0825 4.516107 34.830561 -3.020363
2011-06-20 07:49:39 51°18.832 2°52.16 18.0918 4.516107 34.830561 -3.020363
2011-06-20 07:49:44 51°18.838 2°52.185 18.0932 4.516004 34.829664 -3.020363
2011-06-20 07:49:49 51°18.843 2°52.209 18.0919 4.516004 34.829664 -3.020363
2011-06-20 07:49:55 51°18.849 2°52.239 18.1021 4.516004 34.830355 -3.020363
2011-06-20 07:49:59 51°18.854 2°52.26 18.0877 4.516004 34.830355 -3.020363
2011-06-20 07:50:04 51°18.859 2°52.285 18.0893 4.516004 34.830355 -3.020363
2011-06-20 07:50:08 51°18.862 2°52.305 18.0971 4.516004 34.831046 -3.020363
2011-06-20 07:50:14 51°18.868 2°52.336 18.1023 4.5159 34.830149 -3.020363
2011-06-20 07:50:20 51°18.872 2°52.367 18.0851 4.5159 34.83084 -3.020363
2011-06-20 07:50:24 51°18.876 2°52.387 18.1057 4.5159 34.83084 -3.020363
2011-06-20 07:50:28 51°18.879 2°52.408 18.0939 4.5159 34.83084 -3.020363
2011-06-20 07:50:34 51°18.884 2°52.439 18.1078 4.5159 34.83084 -3.020363
2011-06-20 07:50:39 51°18.888 2°52.464 18.0996 4.515796 34.829944 -3.020363
2011-06-20 07:50:44 51°18.893 2°52.49 18.1124 4.515796 34.829944 -3.020363
2011-06-20 07:50:48 51°18.896 2°52.511 18.1131 4.515796 34.830634 -3.020363
2011-06-20 07:50:54 51°18.901 2°52.542 18.1026 4.515692 34.829738 -3.020363
2011-06-20 07:51:00 51°18.906 2°52.572 18.1075 4.515692 34.829738 -3.020363
2011-06-20 07:51:04 51°18.91 2°52.592 18.0987 4.515692 34.829738 -3.020363
2011-06-20 07:51:08 51°18.915 2°52.612 18.1086 4.515692 34.830429 -3.020363
2011-06-20 07:51:14 51°18.92 2°52.643 18.0968 4.515589 34.829532 -3.020363
2011-06-20 07:51:20 51°18.926 2°52.673 18.1113 4.515692 34.83112 -3.020363
2011-06-20 07:51:24 51°18.93 2°52.694 18.1095 4.515692 34.83112 -3.020363
2011-06-20 07:51:28 51°18.934 2°52.714 18.118 4.515692 34.83112 -3.020363
2011-06-20 07:51:34 51°18.939 2°52.744 18.1126 4.515589 34.830914 -3.020363
2011-06-20 07:51:40 51°18.944 2°52.775 18.1046 4.515589 34.831605 -3.020363
2011-06-20 07:51:44 51°18.947 2°52.795 18.103 4.515485 34.830708 -3.020363
2011-06-20 07:51:49 51°18.952 2°52.821 18.1244 4.515589 34.831605 -3.020363
2011-06-20 07:51:55 51°18.956 2°52.851 18.1187 4.515485 34.831399 -3.020363
2011-06-20 07:51:59 51°18.96 2°52.872 18.1248 4.515485 34.831399 -3.020363
2011-06-20 07:52:04 51°18.964 2°52.897 18.1224 4.515485 34.831399 -3.020363
2011-06-20 07:52:09 51°18.968 2°52.923 18.1228 4.515485 34.831399 -3.020363
2011-06-20 07:52:14 51°18.972 2°52.948 18.1345 4.515485 34.83209 -3.020363
2011-06-20 07:52:19 51°18.975 2°52.974 18.1281 4.515381 34.831884 -3.020363
2011-06-20 07:52:24 51°18.981 2°53 18.127 4.515381 34.831193 -3.020363
2011-06-20 07:52:28 51°18.984 2°53.02 18.1326 4.515381 34.831193 -3.020363
2011-06-20 07:52:34 51°18.989 2°53.05 18.1247 4.515381 34.831884 -3.020363
2011-06-20 07:52:39 51°18.994 2°53.075 18.1308 4.515381 34.831884 -3.020363
2011-06-20 07:52:44 51°18.999 2°53.1 18.1233 4.515278 34.831679 -3.020363
2011-06-20 07:52:48 51°19.004 2°53.12 18.1322 4.515278 34.831679 -3.020363
2011-06-20 07:52:54 51°19.01 2°53.15 18.1253 4.515174 34.831473 -3.020363
2011-06-20 07:52:59 51°19.016 2°53.175 18.131 4.515174 34.831473 -3.020363
2011-06-20 07:53:04 51°19.021 2°53.2 18.1281 4.515278 34.83237 -3.020363
2011-06-20 07:53:08 51°19.026 2°53.22 18.1315 4.515174 34.832164 -3.020363
2011-06-20 07:53:14 51°19.032 2°53.25 18.1358 4.515174 34.832855 -3.020363
2011-06-20 07:53:20 51°19.038 2°53.28 18.1341 4.51507 34.831958 -3.020363
2011-06-20 07:53:24 51°19.042 2°53.3 18.1261 4.51507 34.832649 -3.020363
2011-06-20 07:53:28 51°19.046 2°53.32 18.1402 4.51507 34.832649 -3.020363
2011-06-20 07:53:34 51°19.053 2°53.35 18.1324 4.515174 34.833546 -3.020363
2011-06-20 07:53:40 51°19.06 2°53.38 18.1495 4.51507 34.832649 -3.020363
2011-06-20 07:53:44 51°19.063 2°53.4 18.1403 4.514966 34.832444 -3.020363
2011-06-20 07:53:48 51°19.068 2°53.42 18.1447 4.51507 34.83334 -3.020363
2011-06-20 07:53:54 51°19.073 2°53.451 18.1336 4.514966 34.832444 -3.020363
2011-06-20 07:53:59 51°19.079 2°53.475 18.1472 4.514966 34.832444 -3.020363
2011-06-20 07:54:04 51°19.083 2°53.501 18.1461 4.514966 34.833135 -3.020363
2011-06-20 07:54:08 51°19.087 2°53.521 18.1497 4.514966 34.833135 -3.020363
2011-06-20 07:54:14 51°19.092 2°53.552 18.139 4.514863 34.832238 -3.020363
2011-06-20 07:54:19 51°19.097 2°53.577 18.1547 4.514966 34.833826 -3.020363
2011-06-20 07:54:24 51°19.1 2°53.603 18.1363 4.514863 34.832929 -3.020363
2011-06-20 07:54:28 51°19.104 2°53.624 18.1508 4.514863 34.832929 -3.020363
2011-06-20 07:54:34 51°19.108 2°53.654 18.1558 4.514759 34.832723 -3.020363
2011-06-20 07:54:39 51°19.112 2°53.68 18.1515 4.514863 34.834311 -3.020363
2011-06-20 07:54:44 51°19.116 2°53.705 18.1481 4.514759 34.833414 -3.020363
2011-06-20 07:54:48 51°19.12 2°53.725 18.1537 4.514655 34.832518 -3.020363
2011-06-20 07:54:54 51°19.125 2°53.756 18.1654 4.514759 34.834105 -3.020363
2011-06-20 07:55:00 51°19.131 2°53.786 18.1595 4.514759 34.834105 -3.020363
2011-06-20 07:55:04 51°19.135 2°53.806 18.1621 4.514655 34.833209 -3.020363
2011-06-20 07:55:08 51°19.139 2°53.826 18.1613 4.514655 34.8339 -3.020363
2011-06-20 07:55:14 51°19.145 2°53.856 18.1618 4.514655 34.8339 -3.020363
2011-06-20 07:55:19 51°19.15 2°53.882 18.1636 4.514552 34.833694 -3.020363
2011-06-20 07:55:24 51°19.155 2°53.907 18.1562 4.514552 34.833694 -3.020363
2011-06-20 07:55:29 51°19.159 2°53.932 18.1686 4.514552 34.833694 -3.020363
2011-06-20 07:55:35 51°19.165 2°53.962 18.1714 4.514552 34.834385 -3.020363
2011-06-20 07:55:39 51°19.169 2°53.982 18.1675 4.514448 34.833489 -3.020363
2011-06-20 07:55:44 51°19.173 2°54.008 18.1697 4.514448 34.83418 -3.020363
2011-06-20 07:55:49 51°19.179 2°54.032 18.1716 4.514448 34.83418 -3.020363
2011-06-20 07:55:54 51°19.184 2°54.057 18.1681 4.514448 34.834871 -3.020363
2011-06-20 07:55:59 51°19.188 2°54.082 18.1573 4.514448 34.834871 -3.020363
2011-06-20 07:56:04 51°19.194 2°54.107 18.1646 4.514344 34.834665 -3.020363
2011-06-20 07:56:09 51°19.199 2°54.132 18.1657 4.514344 34.833974 -3.020363
2011-06-20 07:56:14 51°19.203 2°54.157 18.1656 4.514344 34.833974 -3.020363
2011-06-20 07:56:19 51°19.208 2°54.182 18.1727 4.51424 34.833768 -3.020363
2011-06-20 07:56:24 51°19.212 2°54.207 18.1744 4.51424 34.83446 -3.020363
2011-06-20 07:56:29 51°19.216 2°54.233 18.167 4.51424 34.83446 -3.020363
2011-06-20 07:56:35 51°19.221 2°54.263 18.1838 4.51424 34.833768 -3.020363
2011-06-20 07:56:39 51°19.224 2°54.284 18.1716 4.514137 34.833563 -3.020363
2011-06-20 07:56:44 51°19.228 2°54.309 18.1798 4.514137 34.834254 -3.020363
2011-06-20 07:56:49 51°19.231 2°54.334 18.1756 4.514137 34.834945 -3.020363
2011-06-20 07:56:54 51°19.235 2°54.36 18.1747 4.514137 34.834945 -3.020363
2011-06-20 07:56:59 51°19.239 2°54.386 18.1697 4.514137 34.834945 -3.020363
2011-06-20 07:57:04 51°19.243 2°54.411 18.1901 4.514033 34.834048 -3.020363
2011-06-20 07:57:09 51°19.246 2°54.437 18.1935 4.514033 34.83474 -3.020363
2011-06-20 07:57:15 51°19.251 2°54.467 18.1681 4.513929 34.833843 -3.020363
2011-06-20 07:57:19 51°19.255 2°54.487 18.1876 4.513929 34.833843 -3.020363
2011-06-20 07:57:24 51°19.259 2°54.512 18.188 4.514033 34.835431 -3.020363
2011-06-20 07:57:28 51°19.262 2°54.533 18.1749 4.514033 34.835431 -3.020363
2011-06-20 07:57:34 51°19.268 2°54.563 18.1956 4.513825 34.833637 -3.020363
2011-06-20 07:57:40 51°19.273 2°54.593 18.1757 4.513825 34.834329 -3.020363
2011-06-20 07:57:44 51°19.277 2°54.613 18.1927 4.513825 34.834329 -3.020363
2011-06-20 07:57:48 51°19.28 2°54.633 18.1847 4.513825 34.83502 -3.020363
2011-06-20 07:57:54 51°19.286 2°54.663 18.1964 4.513722 34.834123 -3.020363
2011-06-20 07:58:00 51°19.291 2°54.693 18.184 4.513722 34.834123 -3.020363
2011-06-20 07:58:04 51°19.295 2°54.713 18.1828 4.513722 34.834814 -3.020363
2011-06-20 07:58:08 51°19.299 2°54.732 18.1971 4.513722 34.834814 -3.020363
2011-06-20 07:58:14 51°19.305 2°54.762 18.1909 4.513618 34.834609 -3.020363
2011-06-20 07:58:20 51°19.311 2°54.792 18.1992 4.513618 34.834609 -3.020363
2011-06-20 07:58:24 51°19.315 2°54.812 18.1881 4.513618 34.834609 -3.020363
2011-06-20 07:58:28 51°19.32 2°54.832 18.1984 4.513618 34.834609 -3.020363
2011-06-20 07:58:34 51°19.326 2°54.861 18.1877 4.513618 34.8353 -3.020363
2011-06-20 07:58:39 51°19.332 2°54.886 18.2067 4.513514 34.834403 -3.020363
2011-06-20 07:58:44 51°19.336 2°54.911 18.1819 4.513411 34.833506 -3.020363
2011-06-20 07:58:48 51°19.341 2°54.93 18.2035 4.513514 34.834403 -3.020363
2011-06-20 07:58:54 51°19.347 2°54.96 18.2045 4.513411 34.834197 -3.020363
2011-06-20 07:58:59 51°19.352 2°54.985 18.1991 4.513411 34.834197 -3.020363
2011-06-20 07:59:04 51°19.357 2°55.01 18.2111 4.513411 34.834197 -3.020363
2011-06-20 07:59:08 51°19.36 2°55.03 18.2005 4.513411 34.834889 -3.020363
2011-06-20 07:59:14 51°19.366 2°55.061 18.2 4.513411 34.834889 -3.020363
2011-06-20 07:59:19 51°19.37 2°55.086 18.2048 4.513307 34.833992 -3.020363
2011-06-20 07:59:24 51°19.374 2°55.111 18.2039 4.513307 34.834683 -3.020363
2011-06-20 07:59:29 51°19.378 2°55.136 18.1989 4.513307 34.834683 -3.020363
2011-06-20 07:59:34 51°19.382 2°55.162 18.2087 4.513307 34.834683 -3.020363
2011-06-20 07:59:40 51°19.387 2°55.192 18.217 4.513203 34.834478 -3.020363
2011-06-20 07:59:44 51°19.39 2°55.212 18.2043 4.513099 34.833581 -3.020363
2011-06-20 07:59:48 51°19.393 2°55.233 18.2105 4.513099 34.833581 -3.020363
2011-06-20 07:59:54 51°19.397 2°55.263 18.2228 4.513099 34.834272 -3.020363
2011-06-20 08:00:00 51°19.401 2°55.294 18.2094 4.513099 34.834272 -3.020363
2011-06-20 08:00:04 51°19.405 2°55.314 18.218 4.513099 34.834272 -3.020363
2011-06-20 08:00:08 51°19.408 2°55.335 18.2182 4.512996 34.834067 -3.020363
2011-06-20 08:00:14 51°19.413 2°55.365 18.2072 4.512996 34.834067 -3.020363
2011-06-20 08:00:20 51°19.418 2°55.396 18.2224 4.512996 34.834067 -3.020363
2011-06-20 08:00:24 51°19.421 2°55.416 18.2247 4.512996 34.834758 -3.020363
2011-06-20 08:00:29 51°19.425 2°55.442 18.206 4.512996 34.834758 -3.020363
2011-06-20 08:00:35 51°19.431 2°55.472 18.2282 4.512892 34.833861 -3.020363
2011-06-20 08:00:40 51°19.434 2°55.497 18.2105 4.512892 34.834552 -3.020363
2011-06-20 08:00:44 51°19.438 2°55.517 18.2307 4.512892 34.834552 -3.020363
2011-06-20 08:00:49 51°19.442 2°55.542 18.2292 4.512788 34.834347 -3.020363
2011-06-20 08:00:54 51°19.447 2°55.567 18.235 4.512788 34.835038 -3.020363
2011-06-20 08:00:59 51°19.451 2°55.593 18.2294 4.512788 34.835038 -3.020363
2011-06-20 08:01:04 51°19.456 2°55.617 18.2285 4.512788 34.835038 -3.020363
2011-06-20 08:01:08 51°19.461 2°55.637 18.2257 4.512684 34.834141 -3.020363
2011-06-20 08:01:14 51°19.467 2°55.666 18.23 4.512684 34.834141 -3.020363
2011-06-20 08:01:19 51°19.473 2°55.69 18.2267 4.512684 34.835524 -3.020363
2011-06-20 08:01:24 51°19.479 2°55.715 18.2263 4.512684 34.834833 -3.020363
2011-06-20 08:01:28 51°19.484 2°55.734 18.2411 4.512684 34.834833 -3.020363
2011-06-20 08:01:34 51°19.49 2°55.764 18.2369 4.512581 34.833936 -3.020363
2011-06-20 08:01:40 51°19.497 2°55.793 18.2403 4.512581 34.834627 -3.020363
2011-06-20 08:01:44 51°19.502 2°55.812 18.2423 4.512477 34.834422 -3.020363
2011-06-20 08:01:50 51°19.509 2°55.842 18.2377 4.512373 34.833524 -3.020363
2011-06-20 08:01:54 51°19.513 2°55.861 18.2321 4.512477 34.834422 -3.020363
2011-06-20 08:01:59 51°19.518 2°55.886 18.2372 4.512477 34.834422 -3.020363
2011-06-20 08:02:04 51°19.524 2°55.911 18.2228 4.512477 34.835805 -3.020363
2011-06-20 08:02:09 51°19.529 2°55.935 18.2407 4.512373 34.834216 -3.020363
2011-06-20 08:02:15 51°19.535 2°55.965 18.2422 4.512373 34.834908 -3.020363
2011-06-20 08:02:19 51°19.539 2°55.985 18.2404 4.512373 34.834908 -3.020363
2011-06-20 08:02:24 51°19.543 2°56.01 18.2406 4.51227 34.83401 -3.020363
2011-06-20 08:02:29 51°19.547 2°56.035 18.2496 4.51227 34.83401 -3.020363
2011-06-20 08:02:34 51°19.551 2°56.06 18.2462 4.51227 34.83401 -3.020363
2011-06-20 08:02:39 51°19.556 2°56.085 18.2498 4.512166 34.833805 -3.020363
2011-06-20 08:02:44 51°19.56 2°56.109 18.2441 4.512166 34.834496 -3.020363
2011-06-20 08:02:48 51°19.563 2°56.13 18.2421 4.512166 34.834496 -3.020363
2011-06-20 08:02:54 51°19.569 2°56.159 18.2614 4.512062 34.833599 -3.020363
2011-06-20 08:03:00 51°19.574 2°56.19 18.2506 4.512062 34.833599 -3.020363
2011-06-20 08:03:04 51°19.577 2°56.209 18.2613 4.512166 34.834496 -3.020363
2011-06-20 08:03:08 51°19.581 2°56.229 18.2619 4.512062 34.834291 -3.020363
2011-06-20 08:03:14 51°19.587 2°56.259 18.2631 4.512062 34.834291 -3.020363
2011-06-20 08:03:19 51°19.593 2°56.283 18.2616 4.512062 34.834983 -3.020363
2011-06-20 08:03:24 51°19.598 2°56.308 18.2581 4.511958 34.834777 -3.020363
2011-06-20 08:03:28 51°19.603 2°56.328 18.2511 4.511958 34.834777 -3.020363
2011-06-20 08:03:34 51°19.61 2°56.357 18.26 4.511958 34.834777 -3.020363
2011-06-20 08:03:39 51°19.616 2°56.381 18.2657 4.511855 34.834571 -3.020363
2011-06-20 08:03:44 51°19.622 2°56.405 18.2587 4.511855 34.834571 -3.020363
2011-06-20 08:03:48 51°19.627 2°56.424 18.2564 4.511855 34.835263 -3.020363
2011-06-20 08:03:54 51°19.634 2°56.453 18.2538 4.511855 34.835263 -3.020363
2011-06-20 08:03:59 51°19.641 2°56.477 18.2632 4.511855 34.835263 -3.020363
2011-06-20 08:04:04 51°19.647 2°56.502 18.2538 4.511751 34.835058 -3.020363
2011-06-20 08:04:08 51°19.652 2°56.521 18.2592 4.511751 34.835058 -3.020363
2011-06-20 08:04:14 51°19.659 2°56.55 18.2455 4.511647 34.83416 -3.020363
2011-06-20 08:04:20 51°19.665 2°56.579 18.2714 4.511751 34.835749 -3.020363
2011-06-20 08:04:24 51°19.669 2°56.599 18.2602 4.511647 34.834852 -3.020363
2011-06-20 08:04:28 51°19.674 2°56.619 18.2708 4.511647 34.834852 -3.020363
2011-06-20 08:04:35 51°19.68 2°56.654 18.2752 4.511647 34.834852 -3.020363
2011-06-20 08:04:40 51°19.685 2°56.679 18.26 4.511543 34.834646 -3.020363
2011-06-20 08:04:44 51°19.689 2°56.698 18.2784 4.511543 34.834646 -3.020363
2011-06-20 08:04:48 51°19.692 2°56.718 18.2805 4.51144 34.833749 -3.020363
2011-06-20 08:04:54 51°19.697 2°56.749 18.2807 4.511543 34.834646 -3.020363
2011-06-20 08:04:59 51°19.701 2°56.775 18.2798 4.511543 34.834646 -3.020363
2011-06-20 08:05:04 51°19.705 2°56.8 18.2816 4.51144 34.834441 -3.020363
2011-06-20 08:05:08 51°19.708 2°56.82 18.2707 4.51144 34.834441 -3.020363
2011-06-20 08:05:14 51°19.714 2°56.85 18.2791 4.511336 34.834235 -3.020363
2011-06-20 08:05:19 51°19.718 2°56.875 18.2733 4.511336 34.834235 -3.020363
2011-06-20 08:05:24 51°19.723 2°56.901 18.2913 4.511336 34.834927 -3.020363
2011-06-20 08:05:28 51°19.727 2°56.92 18.293 4.511336 34.834927 -3.020363
2011-06-20 08:05:34 51°19.733 2°56.95 18.2882 4.511232 34.83403 -3.020363
2011-06-20 08:05:39 51°19.739 2°56.975 18.2879 4.511232 34.834721 -3.020363
2011-06-20 08:05:44 51°19.745 2°56.999 18.2768 4.511129 34.834516 -3.020363
2011-06-20 08:05:48 51°19.75 2°57.018 18.2897 4.511232 34.835413 -3.020363
2011-06-20 08:05:54 51°19.756 2°57.048 18.2826 4.511232 34.835413 -3.020363
2011-06-20 08:05:59 51°19.763 2°57.072 18.2788 4.511232 34.835413 -3.020363
2011-06-20 08:06:04 51°19.769 2°57.096 18.2882 4.511025 34.83431 -3.020363
2011-06-20 08:06:09 51°19.774 2°57.121 18.2932 4.511129 34.8359 -3.020363
2011-06-20 08:06:15 51°19.781 2°57.151 18.2932 4.511025 34.835002 -3.020363
2011-06-20 08:06:19 51°19.785 2°57.17 18.2945 4.511025 34.835694 -3.020363
2011-06-20 08:06:24 51°19.791 2°57.195 18.2935 4.510921 34.834797 -3.020363
2011-06-20 08:06:29 51°19.796 2°57.22 18.2977 4.510921 34.834797 -3.020363
2011-06-20 08:06:35 51°19.801 2°57.25 18.284 4.511025 34.835694 -3.020363
2011-06-20 08:06:39 51°19.805 2°57.27 18.3006 4.510921 34.835489 -3.020363
2011-06-20 08:06:44 51°19.81 2°57.295 18.3102 4.510817 34.833899 -3.020363
2011-06-20 08:06:48 51°19.814 2°57.315 18.2986 4.510817 34.834591 -3.020363
2011-06-20 08:06:54 51°19.82 2°57.345 18.3019 4.510817 34.834591 -3.020363
2011-06-20 08:07:00 51°19.825 2°57.375 18.3036 4.510817 34.834591 -3.020363
2011-06-20 08:07:04 51°19.828 2°57.395 18.3057 4.510714 34.833694 -3.020363
2011-06-20 08:07:08 51°19.832 2°57.415 18.3164 4.510714 34.834386 -3.020363
2011-06-20 08:07:14 51°19.837 2°57.445 18.308 4.510714 34.834386 -3.020363
2011-06-20 08:07:19 51°19.842 2°57.47 18.3043 4.510714 34.835077 -3.020363
2011-06-20 08:07:24 51°19.847 2°57.495 18.3095 4.51061 34.834872 -3.020363
2011-06-20 08:07:28 51°19.852 2°57.515 18.3226 4.51061 34.834872 -3.020363
2011-06-20 08:07:34 51°19.859 2°57.544 18.3173 4.51061 34.834872 -3.020363
2011-06-20 08:07:39 51°19.865 2°57.568 18.3194 4.51061 34.834872 -3.020363
2011-06-20 08:07:44 51°19.871 2°57.592 18.3142 4.51061 34.835564 -3.020363
2011-06-20 08:07:48 51°19.876 2°57.612 18.3127 4.510506 34.834666 -3.020363
2011-06-20 08:07:54 51°19.884 2°57.641 18.3238 4.510402 34.834461 -3.020363
2011-06-20 08:07:59 51°19.89 2°57.665 18.3182 4.510402 34.834461 -3.020363
2011-06-20 08:08:04 51°19.896 2°57.689 18.3127 4.510506 34.835358 -3.020363
2011-06-20 08:08:09 51°19.902 2°57.714 18.3049 4.510402 34.835153 -3.020363
2011-06-20 08:08:15 51°19.909 2°57.743 18.3252 4.510402 34.835153 -3.020363
2011-06-20 08:08:19 51°19.914 2°57.763 18.3115 4.510299 34.834947 -3.020363
2011-06-20 08:08:24 51°19.92 2°57.788 18.3275 4.510299 34.834947 -3.020363
2011-06-20 08:08:29 51°19.925 2°57.812 18.3102 4.510299 34.834947 -3.020363
2011-06-20 08:08:35 51°19.931 2°57.842 18.3329 4.510195 34.83405 -3.020363
2011-06-20 08:08:39 51°19.935 2°57.862 18.3126 4.510195 34.834742 -3.020363
2011-06-20 08:08:44 51°19.94 2°57.887 18.3294 4.510299 34.835639 -3.020363
2011-06-20 08:08:49 51°19.944 2°57.912 18.321 4.510195 34.835434 -3.020363
2011-06-20 08:08:55 51°19.95 2°57.942 18.322 4.510195 34.834742 -3.020363
2011-06-20 08:09:00 51°19.953 2°57.967 18.3299 4.510195 34.834742 -3.020363
2011-06-20 08:09:04 51°19.957 2°57.987 18.3377 4.510091 34.835228 -3.020363
2011-06-20 08:09:09 51°19.961 2°58.013 18.3344 4.510091 34.835228 -3.020363
2011-06-20 08:09:14 51°19.965 2°58.038 18.3275 4.509988 34.834331 -3.020363
2011-06-20 08:09:20 51°19.971 2°58.067 18.3448 4.509988 34.835023 -3.020363
2011-06-20 08:09:24 51°19.974 2°58.087 18.3318 4.509988 34.835023 -3.020363
2011-06-20 08:09:28 51°19.979 2°58.107 18.3354 4.509988 34.835023 -3.020363
2011-06-20 08:09:34 51°19.984 2°58.137 18.3468 4.509988 34.835023 -3.020363
2011-06-20 08:09:40 51°19.991 2°58.166 18.3409 4.509884 34.834817 -3.020363
2011-06-20 08:09:44 51°19.996 2°58.186 18.337 4.50978 34.834612 -3.020363
2011-06-20 08:09:48 51°20.001 2°58.205 18.3416 4.50978 34.834612 -3.020363
2011-06-20 08:09:54 51°20.007 2°58.234 18.3418 4.50978 34.835304 -3.020363
2011-06-20 08:09:59 51°20.013 2°58.258 18.3425 4.50978 34.835304 -3.020363
2011-06-20 08:10:04 51°20.019 2°58.283 18.334 4.50978 34.835304 -3.020363
2011-06-20 08:10:09 51°20.026 2°58.307 18.3545 4.50978 34.835304 -3.020363
2011-06-20 08:10:15 51°20.033 2°58.336 18.3378 4.509676 34.835098 -3.020363
2011-06-20 08:10:19 51°20.038 2°58.355 18.3416 4.509676 34.83579 -3.020363
2011-06-20 08:10:24 51°20.043 2°58.38 18.3259 4.509573 34.834893 -3.020363
2011-06-20 08:10:29 51°20.049 2°58.404 18.3488 4.509573 34.834893 -3.020363
2011-06-20 08:10:34 51°20.054 2°58.429 18.3425 4.509573 34.834893 -3.020363
2011-06-20 08:10:40 51°20.061 2°58.459 18.3484 4.509573 34.834893 -3.020363
2011-06-20 08:10:44 51°20.064 2°58.479 18.3521 4.509573 34.835585 -3.020363
2011-06-20 08:10:49 51°20.068 2°58.504 18.357 4.509573 34.836277 -3.020363
2011-06-20 08:10:55 51°20.074 2°58.534 18.3474 4.509365 34.834481 -3.020363
2011-06-20 08:11:00 51°20.079 2°58.559 18.3612 4.509365 34.834481 -3.020363
2011-06-20 08:11:04 51°20.082 2°58.579 18.3462 4.509469 34.835379 -3.020363
2011-06-20 08:11:09 51°20.087 2°58.604 18.3599 4.509365 34.834481 -3.020363
2011-06-20 08:11:14 51°20.091 2°58.629 18.3526 4.509262 34.834276 -3.020363
2011-06-20 08:11:19 51°20.095 2°58.654 18.3545 4.509365 34.835174 -3.020363
2011-06-20 08:11:24 51°20.1 2°58.679 18.3534 4.509262 34.834276 -3.020363
2011-06-20 08:11:29 51°20.106 2°58.703 18.3655 4.509262 34.834276 -3.020363
2011-06-20 08:11:34 51°20.111 2°58.728 18.3686 4.509262 34.834968 -3.020363
2011-06-20 08:11:40 51°20.117 2°58.757 18.3513 4.509262 34.83566 -3.020363
2011-06-20 08:11:44 51°20.122 2°58.776 18.3583 4.509158 34.83407 -3.020363
2011-06-20 08:11:49 51°20.128 2°58.801 18.361 4.509158 34.835455 -3.020363
2011-06-20 08:11:54 51°20.134 2°58.825 18.3481 4.509054 34.834557 -3.020363
2011-06-20 08:11:59 51°20.14 2°58.849 18.366 4.509054 34.834557 -3.020363
2011-06-20 08:12:04 51°20.145 2°58.873 18.3581 4.509054 34.835249 -3.020363
2011-06-20 08:12:09 51°20.151 2°58.897 18.3701 4.509158 34.836147 -3.020363
2011-06-20 08:12:14 51°20.156 2°58.922 18.3579 4.509054 34.835942 -3.020363
2011-06-20 08:12:20 51°20.162 2°58.952 18.3769 4.509054 34.835942 -3.020363
2011-06-20 08:12:24 51°20.165 2°58.971 18.3581 4.50895 34.835044 -3.020363
2011-06-20 08:12:29 51°20.17 2°58.996 18.3716 4.50895 34.835044 -3.020363
2011-06-20 08:12:34 51°20.175 2°59.021 18.3565 4.50895 34.835736 -3.020363
2011-06-20 08:12:40 51°20.18 2°59.051 18.3754 4.50895 34.835044 -3.020363
2011-06-20 08:12:44 51°20.183 2°59.07 18.3757 4.508847 34.834838 -3.020363
2011-06-20 08:12:48 51°20.187 2°59.09 18.3755 4.508847 34.834838 -3.020363
2011-06-20 08:12:54 51°20.192 2°59.12 18.3739 4.508743 34.834633 -3.020363
2011-06-20 08:13:00 51°20.197 2°59.15 18.3767 4.508743 34.834633 -3.020363
2011-06-20 08:13:04 51°20.2 2°59.17 18.3883 4.508847 34.835531 -3.020363
2011-06-20 08:13:08 51°20.204 2°59.19 18.366 4.508743 34.835325 -3.020363
2011-06-20 08:13:14 51°20.21 2°59.219 18.3794 4.508639 34.834427 -3.020363
2011-06-20 08:13:19 51°20.214 2°59.244 18.3797 4.508639 34.83512 -3.020363
2011-06-20 08:13:24 51°20.22 2°59.268 18.3905 4.508639 34.83512 -3.020363
2011-06-20 08:13:29 51°20.225 2°59.292 18.3824 4.508639 34.83512 -3.020363
2011-06-20 08:13:35 51°20.233 2°59.32 18.3896 4.508639 34.83512 -3.020363
2011-06-20 08:13:40 51°20.239 2°59.344 18.3806 4.508535 34.834914 -3.020363
2011-06-20 08:13:44 51°20.244 2°59.363 18.3876 4.508535 34.834914 -3.020363
2011-06-20 08:13:49 51°20.25 2°59.387 18.3784 4.508432 34.834708 -3.020363
2011-06-20 08:13:54 51°20.256 2°59.41 18.3861 4.508535 34.836299 -3.020363
2011-06-20 08:13:59 51°20.262 2°59.434 18.3889 4.508535 34.836299 -3.020363
2011-06-20 08:14:04 51°20.268 2°59.458 18.386 4.508328 34.835195 -3.020363
2011-06-20 08:14:09 51°20.274 2°59.481 18.3785 4.508535 34.836991 -3.020363
2011-06-20 08:14:15 51°20.282 2°59.51 18.3762 4.508328 34.835195 -3.020363
2011-06-20 08:14:20 51°20.287 2°59.534 18.3917 4.508328 34.835888 -3.020363
2011-06-20 08:14:24 51°20.291 2°59.553 18.3714 4.508328 34.835888 -3.020363
2011-06-20 08:14:29 51°20.297 2°59.577 18.3851 4.508328 34.835888 -3.020363
2011-06-20 08:14:34 51°20.302 2°59.602 18.3924 4.508224 34.834297 -3.020363
2011-06-20 08:14:39 51°20.306 2°59.626 18.3983 4.508224 34.83499 -3.020363
2011-06-20 08:14:44 51°20.31 2°59.651 18.3938 4.508224 34.835682 -3.020363